<?xml version="1.0" encoding="UTF-8" standalone="no" ?>
<gpx xmlns="http://www.topografix.com/GPX/1/1" xmlns:xsi="http://www.w3.org/2001/XMLSchema-instance" xsi:schemaLocation="http://www.topografix.com/GPX/1/1 http://www.topografix.com/GPX/1/1/gpx.xsd" version="1.1" creator="VisuGPX - https://www.visugpx.com">
  <metadata>
    <name>TMA 25 mai 2017</name>
    <desc><![CDATA[Tro Menez Arrée 2017
Le Cloître Saint Thégonnec
]]></desc>
  </metadata>
  <trk>
    <name><![CDATA[ONmove 200 - 25/05/2017]]></name>
    <trkseg>
      <trkpt lat="48.47841" lon="-3.79341">
        <ele>226</ele>
        <time>2017-05-25T13:27:05Z</time>
      </trkpt>
      <trkpt lat="48.4784" lon="-3.79344">
        <ele>226</ele>
        <time>2017-05-25T13:27:25Z</time>
      </trkpt>
      <trkpt lat="48.47821" lon="-3.79337">
        <ele>228</ele>
        <time>2017-05-25T13:27:30Z</time>
      </trkpt>
      <trkpt lat="48.47792" lon="-3.79356">
        <ele>228</ele>
        <time>2017-05-25T13:28:00Z</time>
      </trkpt>
      <trkpt lat="48.47776" lon="-3.79355">
        <ele>230</ele>
        <time>2017-05-25T13:28:20Z</time>
      </trkpt>
      <trkpt lat="48.47778" lon="-3.79349">
        <ele>230</ele>
        <time>2017-05-25T13:28:30Z</time>
      </trkpt>
      <trkpt lat="48.47758" lon="-3.79344">
        <ele>232</ele>
        <time>2017-05-25T13:28:35Z</time>
      </trkpt>
      <trkpt lat="48.47753" lon="-3.79337">
        <ele>232</ele>
        <time>2017-05-25T13:28:40Z</time>
      </trkpt>
      <trkpt lat="48.47738" lon="-3.79331">
        <ele>234</ele>
        <time>2017-05-25T13:29:00Z</time>
      </trkpt>
      <trkpt lat="48.47686" lon="-3.79304">
        <ele>238</ele>
        <time>2017-05-25T13:30:00Z</time>
      </trkpt>
      <trkpt lat="48.47676" lon="-3.79304">
        <ele>240</ele>
        <time>2017-05-25T13:30:10Z</time>
      </trkpt>
      <trkpt lat="48.47633" lon="-3.79286">
        <ele>244</ele>
        <time>2017-05-25T13:30:55Z</time>
      </trkpt>
      <trkpt lat="48.47622" lon="-3.79276">
        <ele>244</ele>
        <time>2017-05-25T13:31:10Z</time>
      </trkpt>
      <trkpt lat="48.47604" lon="-3.79266">
        <ele>246</ele>
        <time>2017-05-25T13:31:30Z</time>
      </trkpt>
      <trkpt lat="48.47599" lon="-3.79267">
        <ele>247</ele>
        <time>2017-05-25T13:31:35Z</time>
      </trkpt>
      <trkpt lat="48.47586" lon="-3.79272">
        <ele>249</ele>
        <time>2017-05-25T13:31:45Z</time>
      </trkpt>
      <trkpt lat="48.47558" lon="-3.79298">
        <ele>253</ele>
        <time>2017-05-25T13:32:20Z</time>
      </trkpt>
      <trkpt lat="48.4755" lon="-3.793">
        <ele>254</ele>
        <time>2017-05-25T13:32:30Z</time>
      </trkpt>
      <trkpt lat="48.47512" lon="-3.79297">
        <ele>255</ele>
        <time>2017-05-25T13:33:10Z</time>
      </trkpt>
      <trkpt lat="48.47489" lon="-3.79295">
        <ele>255</ele>
        <time>2017-05-25T13:33:30Z</time>
      </trkpt>
      <trkpt lat="48.47469" lon="-3.79297">
        <ele>255</ele>
        <time>2017-05-25T13:33:50Z</time>
      </trkpt>
      <trkpt lat="48.47459" lon="-3.79295">
        <ele>254</ele>
        <time>2017-05-25T13:34:00Z</time>
      </trkpt>
      <trkpt lat="48.47422" lon="-3.79278">
        <ele>253</ele>
        <time>2017-05-25T13:34:35Z</time>
      </trkpt>
      <trkpt lat="48.47409" lon="-3.79279">
        <ele>253</ele>
        <time>2017-05-25T13:34:45Z</time>
      </trkpt>
      <trkpt lat="48.47404" lon="-3.79293">
        <ele>253</ele>
        <time>2017-05-25T13:34:55Z</time>
      </trkpt>
      <trkpt lat="48.47402" lon="-3.79302">
        <ele>253</ele>
        <time>2017-05-25T13:35:00Z</time>
      </trkpt>
      <trkpt lat="48.474" lon="-3.79318">
        <ele>253</ele>
        <time>2017-05-25T13:35:10Z</time>
      </trkpt>
      <trkpt lat="48.47399" lon="-3.7935">
        <ele>254</ele>
        <time>2017-05-25T13:35:30Z</time>
      </trkpt>
      <trkpt lat="48.47394" lon="-3.79374">
        <ele>253</ele>
        <time>2017-05-25T13:35:50Z</time>
      </trkpt>
      <trkpt lat="48.47377" lon="-3.79373">
        <ele>253</ele>
        <time>2017-05-25T13:36:15Z</time>
      </trkpt>
      <trkpt lat="48.47365" lon="-3.79379">
        <ele>252</ele>
        <time>2017-05-25T13:36:30Z</time>
      </trkpt>
      <trkpt lat="48.47344" lon="-3.79411">
        <ele>251</ele>
        <time>2017-05-25T13:37:00Z</time>
      </trkpt>
      <trkpt lat="48.47317" lon="-3.7943">
        <ele>249</ele>
        <time>2017-05-25T13:37:25Z</time>
      </trkpt>
      <trkpt lat="48.4731" lon="-3.79442">
        <ele>249</ele>
        <time>2017-05-25T13:37:35Z</time>
      </trkpt>
      <trkpt lat="48.47298" lon="-3.79465">
        <ele>249</ele>
        <time>2017-05-25T13:37:50Z</time>
      </trkpt>
      <trkpt lat="48.4728" lon="-3.79474">
        <ele>249</ele>
        <time>2017-05-25T13:38:10Z</time>
      </trkpt>
      <trkpt lat="48.47271" lon="-3.79462">
        <ele>249</ele>
        <time>2017-05-25T13:38:20Z</time>
      </trkpt>
      <trkpt lat="48.47255" lon="-3.79447">
        <ele>249</ele>
        <time>2017-05-25T13:38:40Z</time>
      </trkpt>
      <trkpt lat="48.47228" lon="-3.79436">
        <ele>247</ele>
        <time>2017-05-25T13:39:05Z</time>
      </trkpt>
      <trkpt lat="48.47205" lon="-3.79417">
        <ele>245</ele>
        <time>2017-05-25T13:39:25Z</time>
      </trkpt>
      <trkpt lat="48.47196" lon="-3.79407">
        <ele>245</ele>
        <time>2017-05-25T13:39:35Z</time>
      </trkpt>
      <trkpt lat="48.47163" lon="-3.79375">
        <ele>242</ele>
        <time>2017-05-25T13:40:10Z</time>
      </trkpt>
      <trkpt lat="48.47157" lon="-3.79354">
        <ele>241</ele>
        <time>2017-05-25T13:40:30Z</time>
      </trkpt>
      <trkpt lat="48.47148" lon="-3.79347">
        <ele>241</ele>
        <time>2017-05-25T13:40:40Z</time>
      </trkpt>
      <trkpt lat="48.47138" lon="-3.79369">
        <ele>240</ele>
        <time>2017-05-25T13:41:00Z</time>
      </trkpt>
      <trkpt lat="48.47127" lon="-3.79389">
        <ele>239</ele>
        <time>2017-05-25T13:41:20Z</time>
      </trkpt>
      <trkpt lat="48.47123" lon="-3.79395">
        <ele>238</ele>
        <time>2017-05-25T13:41:25Z</time>
      </trkpt>
      <trkpt lat="48.47111" lon="-3.79415">
        <ele>235</ele>
        <time>2017-05-25T13:41:40Z</time>
      </trkpt>
      <trkpt lat="48.47106" lon="-3.79452">
        <ele>232</ele>
        <time>2017-05-25T13:42:05Z</time>
      </trkpt>
      <trkpt lat="48.47104" lon="-3.7948">
        <ele>230</ele>
        <time>2017-05-25T13:42:20Z</time>
      </trkpt>
      <trkpt lat="48.471" lon="-3.79502">
        <ele>228</ele>
        <time>2017-05-25T13:42:30Z</time>
      </trkpt>
      <trkpt lat="48.47086" lon="-3.7956">
        <ele>225</ele>
        <time>2017-05-25T13:43:10Z</time>
      </trkpt>
      <trkpt lat="48.47083" lon="-3.7958">
        <ele>224</ele>
        <time>2017-05-25T13:43:20Z</time>
      </trkpt>
      <trkpt lat="48.4708" lon="-3.7959">
        <ele>224</ele>
        <time>2017-05-25T13:43:25Z</time>
      </trkpt>
      <trkpt lat="48.47045" lon="-3.79676">
        <ele>222</ele>
        <time>2017-05-25T13:44:20Z</time>
      </trkpt>
      <trkpt lat="48.47037" lon="-3.79704">
        <ele>221</ele>
        <time>2017-05-25T13:44:40Z</time>
      </trkpt>
      <trkpt lat="48.47032" lon="-3.79717">
        <ele>221</ele>
        <time>2017-05-25T13:44:50Z</time>
      </trkpt>
      <trkpt lat="48.47024" lon="-3.79731">
        <ele>221</ele>
        <time>2017-05-25T13:45:05Z</time>
      </trkpt>
      <trkpt lat="48.47021" lon="-3.7974">
        <ele>222</ele>
        <time>2017-05-25T13:45:10Z</time>
      </trkpt>
      <trkpt lat="48.47014" lon="-3.79767">
        <ele>222</ele>
        <time>2017-05-25T13:45:30Z</time>
      </trkpt>
      <trkpt lat="48.47009" lon="-3.7979">
        <ele>220</ele>
        <time>2017-05-25T13:45:45Z</time>
      </trkpt>
      <trkpt lat="48.46996" lon="-3.79834">
        <ele>217</ele>
        <time>2017-05-25T13:46:15Z</time>
      </trkpt>
      <trkpt lat="48.46982" lon="-3.79872">
        <ele>215</ele>
        <time>2017-05-25T13:46:40Z</time>
      </trkpt>
      <trkpt lat="48.46976" lon="-3.79904">
        <ele>215</ele>
        <time>2017-05-25T13:46:55Z</time>
      </trkpt>
      <trkpt lat="48.46976" lon="-3.79957">
        <ele>214</ele>
        <time>2017-05-25T13:47:20Z</time>
      </trkpt>
      <trkpt lat="48.46978" lon="-3.79978">
        <ele>213</ele>
        <time>2017-05-25T13:47:30Z</time>
      </trkpt>
      <trkpt lat="48.46984" lon="-3.80002">
        <ele>213</ele>
        <time>2017-05-25T13:47:50Z</time>
      </trkpt>
      <trkpt lat="48.46986" lon="-3.80003">
        <ele>213</ele>
        <time>2017-05-25T13:48:05Z</time>
      </trkpt>
      <trkpt lat="48.46999" lon="-3.80032">
        <ele>213</ele>
        <time>2017-05-25T13:48:30Z</time>
      </trkpt>
      <trkpt lat="48.47028" lon="-3.80071">
        <ele>213</ele>
        <time>2017-05-25T13:49:00Z</time>
      </trkpt>
      <trkpt lat="48.47042" lon="-3.80097">
        <ele>214</ele>
        <time>2017-05-25T13:49:20Z</time>
      </trkpt>
      <trkpt lat="48.4706" lon="-3.80125">
        <ele>214</ele>
        <time>2017-05-25T13:49:45Z</time>
      </trkpt>
      <trkpt lat="48.47079" lon="-3.80136">
        <ele>214</ele>
        <time>2017-05-25T13:50:05Z</time>
      </trkpt>
      <trkpt lat="48.47095" lon="-3.80156">
        <ele>212</ele>
        <time>2017-05-25T13:50:25Z</time>
      </trkpt>
      <trkpt lat="48.47106" lon="-3.80181">
        <ele>209</ele>
        <time>2017-05-25T13:50:40Z</time>
      </trkpt>
      <trkpt lat="48.47126" lon="-3.80206">
        <ele>207</ele>
        <time>2017-05-25T13:51:05Z</time>
      </trkpt>
      <trkpt lat="48.47127" lon="-3.80227">
        <ele>206</ele>
        <time>2017-05-25T13:51:20Z</time>
      </trkpt>
      <trkpt lat="48.47137" lon="-3.80239">
        <ele>206</ele>
        <time>2017-05-25T13:51:30Z</time>
      </trkpt>
      <trkpt lat="48.47132" lon="-3.80256">
        <ele>205</ele>
        <time>2017-05-25T13:51:40Z</time>
      </trkpt>
      <trkpt lat="48.47121" lon="-3.80283">
        <ele>204</ele>
        <time>2017-05-25T13:51:55Z</time>
      </trkpt>
      <trkpt lat="48.47115" lon="-3.80319">
        <ele>203</ele>
        <time>2017-05-25T13:52:20Z</time>
      </trkpt>
      <trkpt lat="48.47123" lon="-3.80351">
        <ele>204</ele>
        <time>2017-05-25T13:52:40Z</time>
      </trkpt>
      <trkpt lat="48.47133" lon="-3.80368">
        <ele>203</ele>
        <time>2017-05-25T13:52:55Z</time>
      </trkpt>
      <trkpt lat="48.47158" lon="-3.80426">
        <ele>204</ele>
        <time>2017-05-25T13:53:35Z</time>
      </trkpt>
      <trkpt lat="48.47161" lon="-3.80457">
        <ele>206</ele>
        <time>2017-05-25T13:53:55Z</time>
      </trkpt>
      <trkpt lat="48.4716" lon="-3.8049">
        <ele>207</ele>
        <time>2017-05-25T13:54:20Z</time>
      </trkpt>
      <trkpt lat="48.47158" lon="-3.80505">
        <ele>208</ele>
        <time>2017-05-25T13:54:30Z</time>
      </trkpt>
      <trkpt lat="48.47152" lon="-3.80535">
        <ele>208</ele>
        <time>2017-05-25T13:54:50Z</time>
      </trkpt>
      <trkpt lat="48.47148" lon="-3.80571">
        <ele>208</ele>
        <time>2017-05-25T13:55:20Z</time>
      </trkpt>
      <trkpt lat="48.47139" lon="-3.80607">
        <ele>210</ele>
        <time>2017-05-25T13:55:45Z</time>
      </trkpt>
      <trkpt lat="48.47138" lon="-3.80632">
        <ele>211</ele>
        <time>2017-05-25T13:56:05Z</time>
      </trkpt>
      <trkpt lat="48.47134" lon="-3.80655">
        <ele>212</ele>
        <time>2017-05-25T13:56:20Z</time>
      </trkpt>
      <trkpt lat="48.47129" lon="-3.80668">
        <ele>213</ele>
        <time>2017-05-25T13:56:30Z</time>
      </trkpt>
      <trkpt lat="48.47131" lon="-3.80675">
        <ele>214</ele>
        <time>2017-05-25T13:56:35Z</time>
      </trkpt>
      <trkpt lat="48.47146" lon="-3.80712">
        <ele>217</ele>
        <time>2017-05-25T13:57:10Z</time>
      </trkpt>
      <trkpt lat="48.4718" lon="-3.8076">
        <ele>220</ele>
        <time>2017-05-25T13:57:55Z</time>
      </trkpt>
      <trkpt lat="48.47186" lon="-3.80765">
        <ele>221</ele>
        <time>2017-05-25T13:58:00Z</time>
      </trkpt>
      <trkpt lat="48.4721" lon="-3.80817">
        <ele>224</ele>
        <time>2017-05-25T13:58:40Z</time>
      </trkpt>
      <trkpt lat="48.47213" lon="-3.80818">
        <ele>224</ele>
        <time>2017-05-25T13:58:45Z</time>
      </trkpt>
      <trkpt lat="48.47212" lon="-3.80829">
        <ele>225</ele>
        <time>2017-05-25T13:58:50Z</time>
      </trkpt>
      <trkpt lat="48.47217" lon="-3.80847">
        <ele>225</ele>
        <time>2017-05-25T13:59:00Z</time>
      </trkpt>
      <trkpt lat="48.47224" lon="-3.80923">
        <ele>226</ele>
        <time>2017-05-25T13:59:45Z</time>
      </trkpt>
      <trkpt lat="48.47223" lon="-3.8098">
        <ele>225</ele>
        <time>2017-05-25T14:00:20Z</time>
      </trkpt>
      <trkpt lat="48.47221" lon="-3.81002">
        <ele>226</ele>
        <time>2017-05-25T14:00:35Z</time>
      </trkpt>
      <trkpt lat="48.47223" lon="-3.81017">
        <ele>226</ele>
        <time>2017-05-25T14:00:45Z</time>
      </trkpt>
      <trkpt lat="48.47232" lon="-3.81033">
        <ele>225</ele>
        <time>2017-05-25T14:01:00Z</time>
      </trkpt>
      <trkpt lat="48.47234" lon="-3.81038">
        <ele>225</ele>
        <time>2017-05-25T14:01:15Z</time>
      </trkpt>
      <trkpt lat="48.47249" lon="-3.81054">
        <ele>225</ele>
        <time>2017-05-25T14:01:40Z</time>
      </trkpt>
      <trkpt lat="48.47268" lon="-3.81068">
        <ele>224</ele>
        <time>2017-05-25T14:02:00Z</time>
      </trkpt>
      <trkpt lat="48.47292" lon="-3.81089">
        <ele>223</ele>
        <time>2017-05-25T14:02:30Z</time>
      </trkpt>
      <trkpt lat="48.47308" lon="-3.81102">
        <ele>221</ele>
        <time>2017-05-25T14:02:45Z</time>
      </trkpt>
      <trkpt lat="48.4733" lon="-3.81117">
        <ele>218</ele>
        <time>2017-05-25T14:03:05Z</time>
      </trkpt>
      <trkpt lat="48.47344" lon="-3.8113">
        <ele>217</ele>
        <time>2017-05-25T14:03:20Z</time>
      </trkpt>
      <trkpt lat="48.47367" lon="-3.81161">
        <ele>213</ele>
        <time>2017-05-25T14:03:40Z</time>
      </trkpt>
      <trkpt lat="48.47369" lon="-3.81169">
        <ele>212</ele>
        <time>2017-05-25T14:03:45Z</time>
      </trkpt>
      <trkpt lat="48.47368" lon="-3.81176">
        <ele>212</ele>
        <time>2017-05-25T14:03:50Z</time>
      </trkpt>
      <trkpt lat="48.47359" lon="-3.81214">
        <ele>211</ele>
        <time>2017-05-25T14:04:10Z</time>
      </trkpt>
      <trkpt lat="48.47353" lon="-3.8127">
        <ele>210</ele>
        <time>2017-05-25T14:04:40Z</time>
      </trkpt>
      <trkpt lat="48.47344" lon="-3.81321">
        <ele>208</ele>
        <time>2017-05-25T14:05:10Z</time>
      </trkpt>
      <trkpt lat="48.47336" lon="-3.81347">
        <ele>207</ele>
        <time>2017-05-25T14:05:25Z</time>
      </trkpt>
      <trkpt lat="48.47328" lon="-3.81363">
        <ele>206</ele>
        <time>2017-05-25T14:05:35Z</time>
      </trkpt>
      <trkpt lat="48.47316" lon="-3.8137">
        <ele>205</ele>
        <time>2017-05-25T14:05:45Z</time>
      </trkpt>
      <trkpt lat="48.4731" lon="-3.81366">
        <ele>206</ele>
        <time>2017-05-25T14:05:50Z</time>
      </trkpt>
      <trkpt lat="48.47291" lon="-3.81351">
        <ele>207</ele>
        <time>2017-05-25T14:06:10Z</time>
      </trkpt>
      <trkpt lat="48.47274" lon="-3.81345">
        <ele>207</ele>
        <time>2017-05-25T14:06:25Z</time>
      </trkpt>
      <trkpt lat="48.47246" lon="-3.81336">
        <ele>207</ele>
        <time>2017-05-25T14:06:50Z</time>
      </trkpt>
      <trkpt lat="48.47209" lon="-3.81319">
        <ele>208</ele>
        <time>2017-05-25T14:07:25Z</time>
      </trkpt>
      <trkpt lat="48.47192" lon="-3.81319">
        <ele>210</ele>
        <time>2017-05-25T14:07:40Z</time>
      </trkpt>
      <trkpt lat="48.47173" lon="-3.81322">
        <ele>211</ele>
        <time>2017-05-25T14:08:00Z</time>
      </trkpt>
      <trkpt lat="48.47155" lon="-3.81328">
        <ele>212</ele>
        <time>2017-05-25T14:08:20Z</time>
      </trkpt>
      <trkpt lat="48.47142" lon="-3.81334">
        <ele>213</ele>
        <time>2017-05-25T14:08:35Z</time>
      </trkpt>
      <trkpt lat="48.4712" lon="-3.81341">
        <ele>215</ele>
        <time>2017-05-25T14:09:00Z</time>
      </trkpt>
      <trkpt lat="48.47107" lon="-3.81349">
        <ele>215</ele>
        <time>2017-05-25T14:09:15Z</time>
      </trkpt>
      <trkpt lat="48.47098" lon="-3.81354">
        <ele>215</ele>
        <time>2017-05-25T14:09:25Z</time>
      </trkpt>
      <trkpt lat="48.4709" lon="-3.81356">
        <ele>215</ele>
        <time>2017-05-25T14:09:35Z</time>
      </trkpt>
      <trkpt lat="48.47071" lon="-3.81364">
        <ele>217</ele>
        <time>2017-05-25T14:09:55Z</time>
      </trkpt>
      <trkpt lat="48.47065" lon="-3.81371">
        <ele>217</ele>
        <time>2017-05-25T14:10:05Z</time>
      </trkpt>
      <trkpt lat="48.47044" lon="-3.8141">
        <ele>218</ele>
        <time>2017-05-25T14:10:40Z</time>
      </trkpt>
      <trkpt lat="48.47029" lon="-3.81427">
        <ele>219</ele>
        <time>2017-05-25T14:11:00Z</time>
      </trkpt>
      <trkpt lat="48.47013" lon="-3.81449">
        <ele>220</ele>
        <time>2017-05-25T14:11:20Z</time>
      </trkpt>
      <trkpt lat="48.46999" lon="-3.81464">
        <ele>219</ele>
        <time>2017-05-25T14:11:35Z</time>
      </trkpt>
      <trkpt lat="48.46974" lon="-3.81472">
        <ele>220</ele>
        <time>2017-05-25T14:11:55Z</time>
      </trkpt>
      <trkpt lat="48.46951" lon="-3.81472">
        <ele>220</ele>
        <time>2017-05-25T14:12:15Z</time>
      </trkpt>
      <trkpt lat="48.46941" lon="-3.81468">
        <ele>220</ele>
        <time>2017-05-25T14:12:25Z</time>
      </trkpt>
      <trkpt lat="48.46929" lon="-3.81462">
        <ele>220</ele>
        <time>2017-05-25T14:12:35Z</time>
      </trkpt>
      <trkpt lat="48.46914" lon="-3.81452">
        <ele>221</ele>
        <time>2017-05-25T14:12:50Z</time>
      </trkpt>
      <trkpt lat="48.46885" lon="-3.81439">
        <ele>220</ele>
        <time>2017-05-25T14:13:15Z</time>
      </trkpt>
      <trkpt lat="48.46857" lon="-3.81427">
        <ele>221</ele>
        <time>2017-05-25T14:13:40Z</time>
      </trkpt>
      <trkpt lat="48.46836" lon="-3.8142">
        <ele>221</ele>
        <time>2017-05-25T14:13:55Z</time>
      </trkpt>
      <trkpt lat="48.4683" lon="-3.81415">
        <ele>221</ele>
        <time>2017-05-25T14:14:00Z</time>
      </trkpt>
      <trkpt lat="48.46798" lon="-3.81396">
        <ele>222</ele>
        <time>2017-05-25T14:14:30Z</time>
      </trkpt>
      <trkpt lat="48.46781" lon="-3.8139">
        <ele>221</ele>
        <time>2017-05-25T14:14:45Z</time>
      </trkpt>
      <trkpt lat="48.46773" lon="-3.81387">
        <ele>221</ele>
        <time>2017-05-25T14:14:50Z</time>
      </trkpt>
      <trkpt lat="48.46733" lon="-3.81363">
        <ele>221</ele>
        <time>2017-05-25T14:15:25Z</time>
      </trkpt>
      <trkpt lat="48.4669" lon="-3.81343">
        <ele>219</ele>
        <time>2017-05-25T14:16:00Z</time>
      </trkpt>
      <trkpt lat="48.46665" lon="-3.8133">
        <ele>219</ele>
        <time>2017-05-25T14:16:20Z</time>
      </trkpt>
      <trkpt lat="48.46642" lon="-3.81316">
        <ele>218</ele>
        <time>2017-05-25T14:16:45Z</time>
      </trkpt>
      <trkpt lat="48.4663" lon="-3.81308">
        <ele>218</ele>
        <time>2017-05-25T14:16:55Z</time>
      </trkpt>
      <trkpt lat="48.46621" lon="-3.81301">
        <ele>218</ele>
        <time>2017-05-25T14:17:05Z</time>
      </trkpt>
      <trkpt lat="48.46612" lon="-3.81292">
        <ele>217</ele>
        <time>2017-05-25T14:17:15Z</time>
      </trkpt>
      <trkpt lat="48.4659" lon="-3.81263">
        <ele>217</ele>
        <time>2017-05-25T14:17:40Z</time>
      </trkpt>
      <trkpt lat="48.46569" lon="-3.81241">
        <ele>214</ele>
        <time>2017-05-25T14:18:10Z</time>
      </trkpt>
      <trkpt lat="48.46552" lon="-3.81235">
        <ele>212</ele>
        <time>2017-05-25T14:18:30Z</time>
      </trkpt>
      <trkpt lat="48.46538" lon="-3.81226">
        <ele>210</ele>
        <time>2017-05-25T14:18:50Z</time>
      </trkpt>
      <trkpt lat="48.4653" lon="-3.81219">
        <ele>209</ele>
        <time>2017-05-25T14:19:15Z</time>
      </trkpt>
      <trkpt lat="48.46526" lon="-3.81212">
        <ele>208</ele>
        <time>2017-05-25T14:19:30Z</time>
      </trkpt>
      <trkpt lat="48.46522" lon="-3.81211">
        <ele>208</ele>
        <time>2017-05-25T14:19:40Z</time>
      </trkpt>
      <trkpt lat="48.46512" lon="-3.81204">
        <ele>206</ele>
        <time>2017-05-25T14:20:00Z</time>
      </trkpt>
      <trkpt lat="48.46501" lon="-3.81194">
        <ele>205</ele>
        <time>2017-05-25T14:20:20Z</time>
      </trkpt>
      <trkpt lat="48.46487" lon="-3.81185">
        <ele>203</ele>
        <time>2017-05-25T14:20:35Z</time>
      </trkpt>
      <trkpt lat="48.46474" lon="-3.81193">
        <ele>201</ele>
        <time>2017-05-25T14:20:55Z</time>
      </trkpt>
      <trkpt lat="48.4646" lon="-3.8121">
        <ele>199</ele>
        <time>2017-05-25T14:21:20Z</time>
      </trkpt>
      <trkpt lat="48.46448" lon="-3.81219">
        <ele>197</ele>
        <time>2017-05-25T14:21:35Z</time>
      </trkpt>
      <trkpt lat="48.46442" lon="-3.81221">
        <ele>196</ele>
        <time>2017-05-25T14:21:45Z</time>
      </trkpt>
      <trkpt lat="48.46423" lon="-3.81224">
        <ele>193</ele>
        <time>2017-05-25T14:22:05Z</time>
      </trkpt>
      <trkpt lat="48.46386" lon="-3.81219">
        <ele>190</ele>
        <time>2017-05-25T14:22:35Z</time>
      </trkpt>
      <trkpt lat="48.46365" lon="-3.81221">
        <ele>188</ele>
        <time>2017-05-25T14:22:55Z</time>
      </trkpt>
      <trkpt lat="48.46351" lon="-3.81212">
        <ele>187</ele>
        <time>2017-05-25T14:23:10Z</time>
      </trkpt>
      <trkpt lat="48.46343" lon="-3.81215">
        <ele>187</ele>
        <time>2017-05-25T14:23:20Z</time>
      </trkpt>
      <trkpt lat="48.46339" lon="-3.81223">
        <ele>187</ele>
        <time>2017-05-25T14:23:25Z</time>
      </trkpt>
      <trkpt lat="48.46331" lon="-3.81251">
        <ele>186</ele>
        <time>2017-05-25T14:23:45Z</time>
      </trkpt>
      <trkpt lat="48.46322" lon="-3.8126">
        <ele>186</ele>
        <time>2017-05-25T14:24:10Z</time>
      </trkpt>
      <trkpt lat="48.46323" lon="-3.81262">
        <ele>186</ele>
        <time>2017-05-25T14:24:25Z</time>
      </trkpt>
      <trkpt lat="48.46305" lon="-3.81278">
        <ele>187</ele>
        <time>2017-05-25T14:24:50Z</time>
      </trkpt>
      <trkpt lat="48.46282" lon="-3.81298">
        <ele>187</ele>
        <time>2017-05-25T14:25:20Z</time>
      </trkpt>
      <trkpt lat="48.46278" lon="-3.81303">
        <ele>187</ele>
        <time>2017-05-25T14:25:25Z</time>
      </trkpt>
      <trkpt lat="48.46278" lon="-3.81316">
        <ele>185</ele>
        <time>2017-05-25T14:25:40Z</time>
      </trkpt>
      <trkpt lat="48.46272" lon="-3.81341">
        <ele>185</ele>
        <time>2017-05-25T14:26:15Z</time>
      </trkpt>
      <trkpt lat="48.46269" lon="-3.81345">
        <ele>185</ele>
        <time>2017-05-25T14:26:25Z</time>
      </trkpt>
      <trkpt lat="48.4627" lon="-3.81346">
        <ele>185</ele>
        <time>2017-05-25T14:26:35Z</time>
      </trkpt>
      <trkpt lat="48.46273" lon="-3.81348">
        <ele>185</ele>
        <time>2017-05-25T14:27:05Z</time>
      </trkpt>
      <trkpt lat="48.46274" lon="-3.81348">
        <ele>185</ele>
        <time>2017-05-25T14:27:10Z</time>
      </trkpt>
      <trkpt lat="48.46276" lon="-3.81349">
        <ele>185</ele>
        <time>2017-05-25T14:27:30Z</time>
      </trkpt>
      <trkpt lat="48.46274" lon="-3.81346">
        <ele>185</ele>
        <time>2017-05-25T14:27:40Z</time>
      </trkpt>
      <trkpt lat="48.46274" lon="-3.81345">
        <ele>185</ele>
        <time>2017-05-25T14:28:00Z</time>
      </trkpt>
      <trkpt lat="48.46273" lon="-3.81346">
        <ele>185</ele>
        <time>2017-05-25T14:28:20Z</time>
      </trkpt>
      <trkpt lat="48.46273" lon="-3.81344">
        <ele>185</ele>
        <time>2017-05-25T14:28:45Z</time>
      </trkpt>
      <trkpt lat="48.46273" lon="-3.81345">
        <ele>185</ele>
        <time>2017-05-25T14:29:05Z</time>
      </trkpt>
      <trkpt lat="48.46274" lon="-3.81346">
        <ele>185</ele>
        <time>2017-05-25T14:29:20Z</time>
      </trkpt>
      <trkpt lat="48.46274" lon="-3.81346">
        <ele>185</ele>
        <time>2017-05-25T14:29:45Z</time>
      </trkpt>
      <trkpt lat="48.46274" lon="-3.81345">
        <ele>185</ele>
        <time>2017-05-25T14:29:55Z</time>
      </trkpt>
      <trkpt lat="48.46276" lon="-3.81345">
        <ele>185</ele>
        <time>2017-05-25T14:30:15Z</time>
      </trkpt>
      <trkpt lat="48.46276" lon="-3.81345">
        <ele>185</ele>
        <time>2017-05-25T14:30:35Z</time>
      </trkpt>
      <trkpt lat="48.46275" lon="-3.81345">
        <ele>185</ele>
        <time>2017-05-25T14:31:10Z</time>
      </trkpt>
      <trkpt lat="48.46276" lon="-3.81345">
        <ele>185</ele>
        <time>2017-05-25T14:31:30Z</time>
      </trkpt>
      <trkpt lat="48.46276" lon="-3.81342">
        <ele>185</ele>
        <time>2017-05-25T14:32:15Z</time>
      </trkpt>
      <trkpt lat="48.46278" lon="-3.81343">
        <ele>185</ele>
        <time>2017-05-25T14:32:35Z</time>
      </trkpt>
      <trkpt lat="48.46276" lon="-3.81334">
        <ele>185</ele>
        <time>2017-05-25T14:32:45Z</time>
      </trkpt>
      <trkpt lat="48.46279" lon="-3.81307">
        <ele>186</ele>
        <time>2017-05-25T14:33:10Z</time>
      </trkpt>
      <trkpt lat="48.46295" lon="-3.81284">
        <ele>188</ele>
        <time>2017-05-25T14:33:35Z</time>
      </trkpt>
      <trkpt lat="48.46306" lon="-3.81272">
        <ele>187</ele>
        <time>2017-05-25T14:33:45Z</time>
      </trkpt>
      <trkpt lat="48.46312" lon="-3.8127">
        <ele>187</ele>
        <time>2017-05-25T14:33:50Z</time>
      </trkpt>
      <trkpt lat="48.46326" lon="-3.81261">
        <ele>185</ele>
        <time>2017-05-25T14:34:10Z</time>
      </trkpt>
      <trkpt lat="48.46333" lon="-3.81261">
        <ele>185</ele>
        <time>2017-05-25T14:34:20Z</time>
      </trkpt>
      <trkpt lat="48.46348" lon="-3.81254">
        <ele>185</ele>
        <time>2017-05-25T14:34:40Z</time>
      </trkpt>
      <trkpt lat="48.46356" lon="-3.8126">
        <ele>185</ele>
        <time>2017-05-25T14:34:50Z</time>
      </trkpt>
      <trkpt lat="48.46362" lon="-3.81272">
        <ele>185</ele>
        <time>2017-05-25T14:35:00Z</time>
      </trkpt>
      <trkpt lat="48.46372" lon="-3.81298">
        <ele>184</ele>
        <time>2017-05-25T14:35:20Z</time>
      </trkpt>
      <trkpt lat="48.46374" lon="-3.81311">
        <ele>183</ele>
        <time>2017-05-25T14:35:30Z</time>
      </trkpt>
      <trkpt lat="48.46378" lon="-3.8136">
        <ele>180</ele>
        <time>2017-05-25T14:35:55Z</time>
      </trkpt>
      <trkpt lat="48.46382" lon="-3.81381">
        <ele>179</ele>
        <time>2017-05-25T14:36:05Z</time>
      </trkpt>
      <trkpt lat="48.46401" lon="-3.81444">
        <ele>174</ele>
        <time>2017-05-25T14:36:35Z</time>
      </trkpt>
      <trkpt lat="48.46399" lon="-3.81462">
        <ele>174</ele>
        <time>2017-05-25T14:36:45Z</time>
      </trkpt>
      <trkpt lat="48.46379" lon="-3.81494">
        <ele>172</ele>
        <time>2017-05-25T14:37:10Z</time>
      </trkpt>
      <trkpt lat="48.4637" lon="-3.81505">
        <ele>172</ele>
        <time>2017-05-25T14:37:20Z</time>
      </trkpt>
      <trkpt lat="48.46343" lon="-3.81544">
        <ele>170</ele>
        <time>2017-05-25T14:37:50Z</time>
      </trkpt>
      <trkpt lat="48.46339" lon="-3.81551">
        <ele>170</ele>
        <time>2017-05-25T14:37:55Z</time>
      </trkpt>
      <trkpt lat="48.46312" lon="-3.81606">
        <ele>166</ele>
        <time>2017-05-25T14:38:30Z</time>
      </trkpt>
      <trkpt lat="48.46301" lon="-3.8163">
        <ele>166</ele>
        <time>2017-05-25T14:38:45Z</time>
      </trkpt>
      <trkpt lat="48.46296" lon="-3.81671">
        <ele>169</ele>
        <time>2017-05-25T14:39:10Z</time>
      </trkpt>
      <trkpt lat="48.46286" lon="-3.81712">
        <ele>164</ele>
        <time>2017-05-25T14:39:35Z</time>
      </trkpt>
      <trkpt lat="48.46285" lon="-3.8173">
        <ele>163</ele>
        <time>2017-05-25T14:39:45Z</time>
      </trkpt>
      <trkpt lat="48.46274" lon="-3.81766">
        <ele>161</ele>
        <time>2017-05-25T14:40:05Z</time>
      </trkpt>
      <trkpt lat="48.46259" lon="-3.81791">
        <ele>161</ele>
        <time>2017-05-25T14:40:20Z</time>
      </trkpt>
      <trkpt lat="48.4624" lon="-3.81811">
        <ele>162</ele>
        <time>2017-05-25T14:40:40Z</time>
      </trkpt>
      <trkpt lat="48.46227" lon="-3.81831">
        <ele>163</ele>
        <time>2017-05-25T14:40:55Z</time>
      </trkpt>
      <trkpt lat="48.46203" lon="-3.8186">
        <ele>163</ele>
        <time>2017-05-25T14:41:20Z</time>
      </trkpt>
      <trkpt lat="48.46189" lon="-3.81896">
        <ele>162</ele>
        <time>2017-05-25T14:41:50Z</time>
      </trkpt>
      <trkpt lat="48.46187" lon="-3.81905">
        <ele>164</ele>
        <time>2017-05-25T14:41:55Z</time>
      </trkpt>
      <trkpt lat="48.46169" lon="-3.81935">
        <ele>168</ele>
        <time>2017-05-25T14:42:25Z</time>
      </trkpt>
      <trkpt lat="48.46152" lon="-3.81957">
        <ele>167</ele>
        <time>2017-05-25T14:42:50Z</time>
      </trkpt>
      <trkpt lat="48.46134" lon="-3.81975">
        <ele>168</ele>
        <time>2017-05-25T14:43:20Z</time>
      </trkpt>
      <trkpt lat="48.4612" lon="-3.81983">
        <ele>169</ele>
        <time>2017-05-25T14:43:40Z</time>
      </trkpt>
      <trkpt lat="48.46109" lon="-3.82009">
        <ele>171</ele>
        <time>2017-05-25T14:44:00Z</time>
      </trkpt>
      <trkpt lat="48.46104" lon="-3.82016">
        <ele>171</ele>
        <time>2017-05-25T14:44:05Z</time>
      </trkpt>
      <trkpt lat="48.46093" lon="-3.82069">
        <ele>174</ele>
        <time>2017-05-25T14:44:40Z</time>
      </trkpt>
      <trkpt lat="48.46092" lon="-3.82077">
        <ele>174</ele>
        <time>2017-05-25T14:44:45Z</time>
      </trkpt>
      <trkpt lat="48.46087" lon="-3.82098">
        <ele>175</ele>
        <time>2017-05-25T14:45:00Z</time>
      </trkpt>
      <trkpt lat="48.46082" lon="-3.82131">
        <ele>175</ele>
        <time>2017-05-25T14:45:20Z</time>
      </trkpt>
      <trkpt lat="48.46082" lon="-3.82149">
        <ele>176</ele>
        <time>2017-05-25T14:45:30Z</time>
      </trkpt>
      <trkpt lat="48.46088" lon="-3.82173">
        <ele>180</ele>
        <time>2017-05-25T14:45:45Z</time>
      </trkpt>
      <trkpt lat="48.46089" lon="-3.82225">
        <ele>182</ele>
        <time>2017-05-25T14:46:20Z</time>
      </trkpt>
      <trkpt lat="48.46095" lon="-3.82243">
        <ele>183</ele>
        <time>2017-05-25T14:46:35Z</time>
      </trkpt>
      <trkpt lat="48.46107" lon="-3.82292">
        <ele>185</ele>
        <time>2017-05-25T14:47:10Z</time>
      </trkpt>
      <trkpt lat="48.46107" lon="-3.823">
        <ele>184</ele>
        <time>2017-05-25T14:47:15Z</time>
      </trkpt>
      <trkpt lat="48.46105" lon="-3.82323">
        <ele>184</ele>
        <time>2017-05-25T14:47:30Z</time>
      </trkpt>
      <trkpt lat="48.46096" lon="-3.82336">
        <ele>186</ele>
        <time>2017-05-25T14:47:40Z</time>
      </trkpt>
      <trkpt lat="48.46079" lon="-3.82343">
        <ele>186</ele>
        <time>2017-05-25T14:47:55Z</time>
      </trkpt>
      <trkpt lat="48.46054" lon="-3.82363">
        <ele>188</ele>
        <time>2017-05-25T14:48:20Z</time>
      </trkpt>
      <trkpt lat="48.46044" lon="-3.82382">
        <ele>192</ele>
        <time>2017-05-25T14:48:35Z</time>
      </trkpt>
      <trkpt lat="48.46031" lon="-3.82401">
        <ele>194</ele>
        <time>2017-05-25T14:48:50Z</time>
      </trkpt>
      <trkpt lat="48.46019" lon="-3.82414">
        <ele>195</ele>
        <time>2017-05-25T14:49:05Z</time>
      </trkpt>
      <trkpt lat="48.46005" lon="-3.82435">
        <ele>196</ele>
        <time>2017-05-25T14:49:25Z</time>
      </trkpt>
      <trkpt lat="48.45994" lon="-3.82445">
        <ele>196</ele>
        <time>2017-05-25T14:49:40Z</time>
      </trkpt>
      <trkpt lat="48.45973" lon="-3.82455">
        <ele>195</ele>
        <time>2017-05-25T14:50:05Z</time>
      </trkpt>
      <trkpt lat="48.45956" lon="-3.82473">
        <ele>196</ele>
        <time>2017-05-25T14:50:25Z</time>
      </trkpt>
      <trkpt lat="48.45945" lon="-3.82494">
        <ele>199</ele>
        <time>2017-05-25T14:50:40Z</time>
      </trkpt>
      <trkpt lat="48.45938" lon="-3.82522">
        <ele>200</ele>
        <time>2017-05-25T14:50:55Z</time>
      </trkpt>
      <trkpt lat="48.45934" lon="-3.82551">
        <ele>201</ele>
        <time>2017-05-25T14:51:15Z</time>
      </trkpt>
      <trkpt lat="48.45931" lon="-3.82564">
        <ele>201</ele>
        <time>2017-05-25T14:51:30Z</time>
      </trkpt>
      <trkpt lat="48.45928" lon="-3.82569">
        <ele>202</ele>
        <time>2017-05-25T14:51:55Z</time>
      </trkpt>
      <trkpt lat="48.45929" lon="-3.8257">
        <ele>202</ele>
        <time>2017-05-25T14:52:05Z</time>
      </trkpt>
      <trkpt lat="48.4593" lon="-3.82572">
        <ele>202</ele>
        <time>2017-05-25T14:52:35Z</time>
      </trkpt>
      <trkpt lat="48.4593" lon="-3.8257">
        <ele>202</ele>
        <time>2017-05-25T14:52:50Z</time>
      </trkpt>
      <trkpt lat="48.45929" lon="-3.82569">
        <ele>202</ele>
        <time>2017-05-25T14:53:20Z</time>
      </trkpt>
      <trkpt lat="48.45929" lon="-3.82571">
        <ele>202</ele>
        <time>2017-05-25T14:53:45Z</time>
      </trkpt>
      <trkpt lat="48.45929" lon="-3.82571">
        <ele>202</ele>
        <time>2017-05-25T14:53:50Z</time>
      </trkpt>
      <trkpt lat="48.45927" lon="-3.82575">
        <ele>202</ele>
        <time>2017-05-25T14:54:35Z</time>
      </trkpt>
      <trkpt lat="48.45927" lon="-3.82586">
        <ele>204</ele>
        <time>2017-05-25T14:54:45Z</time>
      </trkpt>
      <trkpt lat="48.45919" lon="-3.82592">
        <ele>204</ele>
        <time>2017-05-25T14:54:55Z</time>
      </trkpt>
      <trkpt lat="48.45908" lon="-3.82588">
        <ele>201</ele>
        <time>2017-05-25T14:55:05Z</time>
      </trkpt>
      <trkpt lat="48.45883" lon="-3.8258">
        <ele>199</ele>
        <time>2017-05-25T14:55:25Z</time>
      </trkpt>
      <trkpt lat="48.4586" lon="-3.8256">
        <ele>194</ele>
        <time>2017-05-25T14:55:45Z</time>
      </trkpt>
      <trkpt lat="48.45831" lon="-3.82546">
        <ele>191</ele>
        <time>2017-05-25T14:56:10Z</time>
      </trkpt>
      <trkpt lat="48.4582" lon="-3.8254">
        <ele>190</ele>
        <time>2017-05-25T14:56:20Z</time>
      </trkpt>
      <trkpt lat="48.4579" lon="-3.82535">
        <ele>187</ele>
        <time>2017-05-25T14:56:45Z</time>
      </trkpt>
      <trkpt lat="48.45778" lon="-3.82537">
        <ele>187</ele>
        <time>2017-05-25T14:56:55Z</time>
      </trkpt>
      <trkpt lat="48.45747" lon="-3.82548">
        <ele>185</ele>
        <time>2017-05-25T14:57:20Z</time>
      </trkpt>
      <trkpt lat="48.45719" lon="-3.82571">
        <ele>183</ele>
        <time>2017-05-25T14:57:45Z</time>
      </trkpt>
      <trkpt lat="48.45712" lon="-3.82579">
        <ele>183</ele>
        <time>2017-05-25T14:57:55Z</time>
      </trkpt>
      <trkpt lat="48.45699" lon="-3.82584">
        <ele>181</ele>
        <time>2017-05-25T14:58:05Z</time>
      </trkpt>
      <trkpt lat="48.45695" lon="-3.82583">
        <ele>180</ele>
        <time>2017-05-25T14:58:10Z</time>
      </trkpt>
      <trkpt lat="48.45676" lon="-3.82572">
        <ele>177</ele>
        <time>2017-05-25T14:58:30Z</time>
      </trkpt>
      <trkpt lat="48.4566" lon="-3.82558">
        <ele>174</ele>
        <time>2017-05-25T14:58:55Z</time>
      </trkpt>
      <trkpt lat="48.45657" lon="-3.82558">
        <ele>175</ele>
        <time>2017-05-25T14:59:05Z</time>
      </trkpt>
      <trkpt lat="48.45654" lon="-3.82556">
        <ele>175</ele>
        <time>2017-05-25T14:59:25Z</time>
      </trkpt>
      <trkpt lat="48.45644" lon="-3.82559">
        <ele>176</ele>
        <time>2017-05-25T14:59:50Z</time>
      </trkpt>
      <trkpt lat="48.45643" lon="-3.82561">
        <ele>176</ele>
        <time>2017-05-25T15:00:05Z</time>
      </trkpt>
      <trkpt lat="48.45641" lon="-3.8256">
        <ele>176</ele>
        <time>2017-05-25T15:00:20Z</time>
      </trkpt>
      <trkpt lat="48.45642" lon="-3.82561">
        <ele>176</ele>
        <time>2017-05-25T15:00:40Z</time>
      </trkpt>
      <trkpt lat="48.45642" lon="-3.82562">
        <ele>176</ele>
        <time>2017-05-25T15:00:55Z</time>
      </trkpt>
      <trkpt lat="48.4564" lon="-3.82564">
        <ele>176</ele>
        <time>2017-05-25T15:01:20Z</time>
      </trkpt>
      <trkpt lat="48.4564" lon="-3.82563">
        <ele>176</ele>
        <time>2017-05-25T15:01:40Z</time>
      </trkpt>
      <trkpt lat="48.45637" lon="-3.82564">
        <ele>176</ele>
        <time>2017-05-25T15:02:00Z</time>
      </trkpt>
      <trkpt lat="48.45637" lon="-3.82563">
        <ele>176</ele>
        <time>2017-05-25T15:02:15Z</time>
      </trkpt>
      <trkpt lat="48.45636" lon="-3.82564">
        <ele>176</ele>
        <time>2017-05-25T15:02:20Z</time>
      </trkpt>
      <trkpt lat="48.45633" lon="-3.82566">
        <ele>176</ele>
        <time>2017-05-25T15:02:45Z</time>
      </trkpt>
      <trkpt lat="48.45633" lon="-3.82564">
        <ele>176</ele>
        <time>2017-05-25T15:02:55Z</time>
      </trkpt>
      <trkpt lat="48.45629" lon="-3.82565">
        <ele>176</ele>
        <time>2017-05-25T15:03:50Z</time>
      </trkpt>
      <trkpt lat="48.45628" lon="-3.82567">
        <ele>176</ele>
        <time>2017-05-25T15:04:05Z</time>
      </trkpt>
      <trkpt lat="48.45627" lon="-3.82577">
        <ele>175</ele>
        <time>2017-05-25T15:04:25Z</time>
      </trkpt>
      <trkpt lat="48.45616" lon="-3.82591">
        <ele>174</ele>
        <time>2017-05-25T15:04:55Z</time>
      </trkpt>
      <trkpt lat="48.45604" lon="-3.82593">
        <ele>174</ele>
        <time>2017-05-25T15:05:10Z</time>
      </trkpt>
      <trkpt lat="48.45593" lon="-3.82601">
        <ele>173</ele>
        <time>2017-05-25T15:05:20Z</time>
      </trkpt>
      <trkpt lat="48.45579" lon="-3.82621">
        <ele>174</ele>
        <time>2017-05-25T15:05:40Z</time>
      </trkpt>
      <trkpt lat="48.45556" lon="-3.82643">
        <ele>174</ele>
        <time>2017-05-25T15:06:10Z</time>
      </trkpt>
      <trkpt lat="48.45543" lon="-3.82679">
        <ele>178</ele>
        <time>2017-05-25T15:06:30Z</time>
      </trkpt>
      <trkpt lat="48.45534" lon="-3.82697">
        <ele>180</ele>
        <time>2017-05-25T15:06:50Z</time>
      </trkpt>
      <trkpt lat="48.4552" lon="-3.82714">
        <ele>181</ele>
        <time>2017-05-25T15:07:10Z</time>
      </trkpt>
      <trkpt lat="48.45508" lon="-3.82735">
        <ele>183</ele>
        <time>2017-05-25T15:07:30Z</time>
      </trkpt>
      <trkpt lat="48.45491" lon="-3.82749">
        <ele>184</ele>
        <time>2017-05-25T15:07:55Z</time>
      </trkpt>
      <trkpt lat="48.45487" lon="-3.82759">
        <ele>184</ele>
        <time>2017-05-25T15:08:00Z</time>
      </trkpt>
      <trkpt lat="48.4546" lon="-3.82796">
        <ele>189</ele>
        <time>2017-05-25T15:08:30Z</time>
      </trkpt>
      <trkpt lat="48.45432" lon="-3.82824">
        <ele>190</ele>
        <time>2017-05-25T15:09:05Z</time>
      </trkpt>
      <trkpt lat="48.45416" lon="-3.82843">
        <ele>191</ele>
        <time>2017-05-25T15:09:25Z</time>
      </trkpt>
      <trkpt lat="48.45397" lon="-3.8286">
        <ele>193</ele>
        <time>2017-05-25T15:09:45Z</time>
      </trkpt>
      <trkpt lat="48.45382" lon="-3.82871">
        <ele>195</ele>
        <time>2017-05-25T15:10:00Z</time>
      </trkpt>
      <trkpt lat="48.45377" lon="-3.82881">
        <ele>196</ele>
        <time>2017-05-25T15:10:10Z</time>
      </trkpt>
      <trkpt lat="48.45356" lon="-3.8289">
        <ele>197</ele>
        <time>2017-05-25T15:10:35Z</time>
      </trkpt>
      <trkpt lat="48.45353" lon="-3.82893">
        <ele>197</ele>
        <time>2017-05-25T15:10:40Z</time>
      </trkpt>
      <trkpt lat="48.45338" lon="-3.82892">
        <ele>198</ele>
        <time>2017-05-25T15:10:55Z</time>
      </trkpt>
      <trkpt lat="48.45306" lon="-3.82904">
        <ele>200</ele>
        <time>2017-05-25T15:11:25Z</time>
      </trkpt>
      <trkpt lat="48.45296" lon="-3.82904">
        <ele>199</ele>
        <time>2017-05-25T15:11:35Z</time>
      </trkpt>
      <trkpt lat="48.45238" lon="-3.82913">
        <ele>201</ele>
        <time>2017-05-25T15:12:25Z</time>
      </trkpt>
      <trkpt lat="48.45224" lon="-3.82919">
        <ele>205</ele>
        <time>2017-05-25T15:12:35Z</time>
      </trkpt>
      <trkpt lat="48.45207" lon="-3.82914">
        <ele>206</ele>
        <time>2017-05-25T15:12:50Z</time>
      </trkpt>
      <trkpt lat="48.45186" lon="-3.82919">
        <ele>208</ele>
        <time>2017-05-25T15:13:10Z</time>
      </trkpt>
      <trkpt lat="48.45159" lon="-3.8293">
        <ele>207</ele>
        <time>2017-05-25T15:13:35Z</time>
      </trkpt>
      <trkpt lat="48.45148" lon="-3.82944">
        <ele>206</ele>
        <time>2017-05-25T15:13:45Z</time>
      </trkpt>
      <trkpt lat="48.45123" lon="-3.82957">
        <ele>206</ele>
        <time>2017-05-25T15:14:10Z</time>
      </trkpt>
      <trkpt lat="48.45119" lon="-3.82964">
        <ele>207</ele>
        <time>2017-05-25T15:14:15Z</time>
      </trkpt>
      <trkpt lat="48.45096" lon="-3.8302">
        <ele>210</ele>
        <time>2017-05-25T15:15:00Z</time>
      </trkpt>
      <trkpt lat="48.45092" lon="-3.83025">
        <ele>208</ele>
        <time>2017-05-25T15:15:05Z</time>
      </trkpt>
      <trkpt lat="48.45079" lon="-3.83051">
        <ele>211</ele>
        <time>2017-05-25T15:15:30Z</time>
      </trkpt>
      <trkpt lat="48.45073" lon="-3.83079">
        <ele>212</ele>
        <time>2017-05-25T15:15:50Z</time>
      </trkpt>
      <trkpt lat="48.45061" lon="-3.83094">
        <ele>213</ele>
        <time>2017-05-25T15:16:05Z</time>
      </trkpt>
      <trkpt lat="48.45056" lon="-3.83125">
        <ele>221</ele>
        <time>2017-05-25T15:16:25Z</time>
      </trkpt>
      <trkpt lat="48.45056" lon="-3.83138">
        <ele>223</ele>
        <time>2017-05-25T15:16:35Z</time>
      </trkpt>
      <trkpt lat="48.45036" lon="-3.83184">
        <ele>218</ele>
        <time>2017-05-25T15:17:05Z</time>
      </trkpt>
      <trkpt lat="48.45031" lon="-3.83208">
        <ele>220</ele>
        <time>2017-05-25T15:17:25Z</time>
      </trkpt>
      <trkpt lat="48.45013" lon="-3.83241">
        <ele>215</ele>
        <time>2017-05-25T15:17:55Z</time>
      </trkpt>
      <trkpt lat="48.45008" lon="-3.8326">
        <ele>217</ele>
        <time>2017-05-25T15:18:10Z</time>
      </trkpt>
      <trkpt lat="48.4499" lon="-3.83304">
        <ele>213</ele>
        <time>2017-05-25T15:18:40Z</time>
      </trkpt>
      <trkpt lat="48.44969" lon="-3.83342">
        <ele>214</ele>
        <time>2017-05-25T15:19:05Z</time>
      </trkpt>
      <trkpt lat="48.44963" lon="-3.83359">
        <ele>216</ele>
        <time>2017-05-25T15:19:15Z</time>
      </trkpt>
      <trkpt lat="48.44952" lon="-3.83394">
        <ele>217</ele>
        <time>2017-05-25T15:19:40Z</time>
      </trkpt>
      <trkpt lat="48.44949" lon="-3.834">
        <ele>217</ele>
        <time>2017-05-25T15:19:45Z</time>
      </trkpt>
      <trkpt lat="48.44935" lon="-3.83418">
        <ele>215</ele>
        <time>2017-05-25T15:20:00Z</time>
      </trkpt>
      <trkpt lat="48.44921" lon="-3.83433">
        <ele>212</ele>
        <time>2017-05-25T15:20:15Z</time>
      </trkpt>
      <trkpt lat="48.44912" lon="-3.8344">
        <ele>210</ele>
        <time>2017-05-25T15:20:25Z</time>
      </trkpt>
      <trkpt lat="48.449" lon="-3.83469">
        <ele>206</ele>
        <time>2017-05-25T15:20:50Z</time>
      </trkpt>
      <trkpt lat="48.44896" lon="-3.83477">
        <ele>205</ele>
        <time>2017-05-25T15:21:00Z</time>
      </trkpt>
      <trkpt lat="48.44881" lon="-3.83474">
        <ele>204</ele>
        <time>2017-05-25T15:21:20Z</time>
      </trkpt>
      <trkpt lat="48.44872" lon="-3.83468">
        <ele>203</ele>
        <time>2017-05-25T15:21:30Z</time>
      </trkpt>
      <trkpt lat="48.44853" lon="-3.8346">
        <ele>201</ele>
        <time>2017-05-25T15:21:50Z</time>
      </trkpt>
      <trkpt lat="48.44843" lon="-3.83468">
        <ele>197</ele>
        <time>2017-05-25T15:22:05Z</time>
      </trkpt>
      <trkpt lat="48.44817" lon="-3.83465">
        <ele>190</ele>
        <time>2017-05-25T15:22:35Z</time>
      </trkpt>
      <trkpt lat="48.44806" lon="-3.83481">
        <ele>189</ele>
        <time>2017-05-25T15:23:00Z</time>
      </trkpt>
      <trkpt lat="48.44792" lon="-3.83475">
        <ele>187</ele>
        <time>2017-05-25T15:23:15Z</time>
      </trkpt>
      <trkpt lat="48.44759" lon="-3.83463">
        <ele>187</ele>
        <time>2017-05-25T15:23:45Z</time>
      </trkpt>
      <trkpt lat="48.44753" lon="-3.83456">
        <ele>187</ele>
        <time>2017-05-25T15:23:50Z</time>
      </trkpt>
      <trkpt lat="48.44728" lon="-3.83443">
        <ele>189</ele>
        <time>2017-05-25T15:24:20Z</time>
      </trkpt>
      <trkpt lat="48.4472" lon="-3.83453">
        <ele>189</ele>
        <time>2017-05-25T15:24:30Z</time>
      </trkpt>
      <trkpt lat="48.44709" lon="-3.83461">
        <ele>190</ele>
        <time>2017-05-25T15:24:45Z</time>
      </trkpt>
      <trkpt lat="48.44693" lon="-3.83507">
        <ele>189</ele>
        <time>2017-05-25T15:25:15Z</time>
      </trkpt>
      <trkpt lat="48.44685" lon="-3.83516">
        <ele>190</ele>
        <time>2017-05-25T15:25:25Z</time>
      </trkpt>
      <trkpt lat="48.44673" lon="-3.83509">
        <ele>191</ele>
        <time>2017-05-25T15:25:40Z</time>
      </trkpt>
      <trkpt lat="48.44651" lon="-3.83499">
        <ele>192</ele>
        <time>2017-05-25T15:26:00Z</time>
      </trkpt>
      <trkpt lat="48.44647" lon="-3.83497">
        <ele>193</ele>
        <time>2017-05-25T15:26:05Z</time>
      </trkpt>
      <trkpt lat="48.44642" lon="-3.83496">
        <ele>193</ele>
        <time>2017-05-25T15:26:25Z</time>
      </trkpt>
      <trkpt lat="48.44643" lon="-3.83493">
        <ele>193</ele>
        <time>2017-05-25T15:27:05Z</time>
      </trkpt>
      <trkpt lat="48.44642" lon="-3.83493">
        <ele>194</ele>
        <time>2017-05-25T15:27:10Z</time>
      </trkpt>
      <trkpt lat="48.4465" lon="-3.83479">
        <ele>193</ele>
        <time>2017-05-25T15:27:50Z</time>
      </trkpt>
      <trkpt lat="48.44652" lon="-3.83472">
        <ele>193</ele>
        <time>2017-05-25T15:27:55Z</time>
      </trkpt>
      <trkpt lat="48.44656" lon="-3.83449">
        <ele>193</ele>
        <time>2017-05-25T15:28:10Z</time>
      </trkpt>
      <trkpt lat="48.44655" lon="-3.8344">
        <ele>193</ele>
        <time>2017-05-25T15:28:20Z</time>
      </trkpt>
      <trkpt lat="48.4465" lon="-3.83442">
        <ele>193</ele>
        <time>2017-05-25T15:28:45Z</time>
      </trkpt>
      <trkpt lat="48.44648" lon="-3.83438">
        <ele>193</ele>
        <time>2017-05-25T15:29:25Z</time>
      </trkpt>
      <trkpt lat="48.44643" lon="-3.83448">
        <ele>193</ele>
        <time>2017-05-25T15:29:55Z</time>
      </trkpt>
      <trkpt lat="48.44638" lon="-3.8345">
        <ele>193</ele>
        <time>2017-05-25T15:30:05Z</time>
      </trkpt>
      <trkpt lat="48.44634" lon="-3.83475">
        <ele>194</ele>
        <time>2017-05-25T15:30:30Z</time>
      </trkpt>
      <trkpt lat="48.44631" lon="-3.83478">
        <ele>194</ele>
        <time>2017-05-25T15:30:35Z</time>
      </trkpt>
      <trkpt lat="48.44627" lon="-3.8348">
        <ele>194</ele>
        <time>2017-05-25T15:30:55Z</time>
      </trkpt>
      <trkpt lat="48.44627" lon="-3.83481">
        <ele>194</ele>
        <time>2017-05-25T15:31:10Z</time>
      </trkpt>
      <trkpt lat="48.44634" lon="-3.83475">
        <ele>194</ele>
        <time>2017-05-25T15:31:25Z</time>
      </trkpt>
      <trkpt lat="48.44632" lon="-3.83468">
        <ele>194</ele>
        <time>2017-05-25T15:31:30Z</time>
      </trkpt>
      <trkpt lat="48.44633" lon="-3.83473">
        <ele>194</ele>
        <time>2017-05-25T15:31:40Z</time>
      </trkpt>
      <trkpt lat="48.44628" lon="-3.83491">
        <ele>194</ele>
        <time>2017-05-25T15:32:00Z</time>
      </trkpt>
      <trkpt lat="48.44623" lon="-3.83526">
        <ele>193</ele>
        <time>2017-05-25T15:33:00Z</time>
      </trkpt>
      <trkpt lat="48.44618" lon="-3.83531">
        <ele>193</ele>
        <time>2017-05-25T15:33:10Z</time>
      </trkpt>
      <trkpt lat="48.44603" lon="-3.83515">
        <ele>194</ele>
        <time>2017-05-25T15:33:30Z</time>
      </trkpt>
      <trkpt lat="48.44603" lon="-3.83528">
        <ele>194</ele>
        <time>2017-05-25T15:33:40Z</time>
      </trkpt>
      <trkpt lat="48.44614" lon="-3.8355">
        <ele>194</ele>
        <time>2017-05-25T15:34:00Z</time>
      </trkpt>
      <trkpt lat="48.44618" lon="-3.83555">
        <ele>194</ele>
        <time>2017-05-25T15:34:10Z</time>
      </trkpt>
      <trkpt lat="48.44624" lon="-3.83572">
        <ele>193</ele>
        <time>2017-05-25T15:34:35Z</time>
      </trkpt>
      <trkpt lat="48.44627" lon="-3.83571">
        <ele>193</ele>
        <time>2017-05-25T15:34:55Z</time>
      </trkpt>
      <trkpt lat="48.4463" lon="-3.83575">
        <ele>193</ele>
        <time>2017-05-25T15:35:25Z</time>
      </trkpt>
      <trkpt lat="48.44626" lon="-3.83577">
        <ele>193</ele>
        <time>2017-05-25T15:35:40Z</time>
      </trkpt>
      <trkpt lat="48.44626" lon="-3.83577">
        <ele>193</ele>
        <time>2017-05-25T15:35:50Z</time>
      </trkpt>
      <trkpt lat="48.44627" lon="-3.83578">
        <ele>193</ele>
        <time>2017-05-25T15:36:05Z</time>
      </trkpt>
      <trkpt lat="48.44626" lon="-3.83582">
        <ele>193</ele>
        <time>2017-05-25T15:36:10Z</time>
      </trkpt>
      <trkpt lat="48.44622" lon="-3.83588">
        <ele>193</ele>
        <time>2017-05-25T15:36:30Z</time>
      </trkpt>
      <trkpt lat="48.44622" lon="-3.83589">
        <ele>192</ele>
        <time>2017-05-25T15:37:20Z</time>
      </trkpt>
      <trkpt lat="48.44622" lon="-3.83591">
        <ele>192</ele>
        <time>2017-05-25T15:38:00Z</time>
      </trkpt>
      <trkpt lat="48.44618" lon="-3.83594">
        <ele>192</ele>
        <time>2017-05-25T15:38:20Z</time>
      </trkpt>
      <trkpt lat="48.44625" lon="-3.83592">
        <ele>192</ele>
        <time>2017-05-25T15:38:35Z</time>
      </trkpt>
      <trkpt lat="48.44633" lon="-3.83587">
        <ele>193</ele>
        <time>2017-05-25T15:38:50Z</time>
      </trkpt>
      <trkpt lat="48.44641" lon="-3.83591">
        <ele>193</ele>
        <time>2017-05-25T15:39:00Z</time>
      </trkpt>
      <trkpt lat="48.44644" lon="-3.83595">
        <ele>194</ele>
        <time>2017-05-25T15:39:05Z</time>
      </trkpt>
      <trkpt lat="48.44655" lon="-3.83613">
        <ele>194</ele>
        <time>2017-05-25T15:39:25Z</time>
      </trkpt>
      <trkpt lat="48.44666" lon="-3.83624">
        <ele>194</ele>
        <time>2017-05-25T15:39:40Z</time>
      </trkpt>
      <trkpt lat="48.44702" lon="-3.83674">
        <ele>194</ele>
        <time>2017-05-25T15:40:25Z</time>
      </trkpt>
      <trkpt lat="48.44709" lon="-3.83682">
        <ele>193</ele>
        <time>2017-05-25T15:40:35Z</time>
      </trkpt>
      <trkpt lat="48.4474" lon="-3.83726">
        <ele>194</ele>
        <time>2017-05-25T15:41:15Z</time>
      </trkpt>
      <trkpt lat="48.44741" lon="-3.83731">
        <ele>195</ele>
        <time>2017-05-25T15:41:20Z</time>
      </trkpt>
      <trkpt lat="48.44752" lon="-3.83743">
        <ele>194</ele>
        <time>2017-05-25T15:41:35Z</time>
      </trkpt>
      <trkpt lat="48.44761" lon="-3.83754">
        <ele>195</ele>
        <time>2017-05-25T15:41:45Z</time>
      </trkpt>
      <trkpt lat="48.44774" lon="-3.83744">
        <ele>199</ele>
        <time>2017-05-25T15:42:10Z</time>
      </trkpt>
      <trkpt lat="48.44779" lon="-3.83746">
        <ele>201</ele>
        <time>2017-05-25T15:42:20Z</time>
      </trkpt>
      <trkpt lat="48.44781" lon="-3.8375">
        <ele>202</ele>
        <time>2017-05-25T15:42:25Z</time>
      </trkpt>
      <trkpt lat="48.44789" lon="-3.83768">
        <ele>205</ele>
        <time>2017-05-25T15:42:45Z</time>
      </trkpt>
      <trkpt lat="48.44798" lon="-3.83774">
        <ele>207</ele>
        <time>2017-05-25T15:42:55Z</time>
      </trkpt>
      <trkpt lat="48.4481" lon="-3.83792">
        <ele>210</ele>
        <time>2017-05-25T15:43:15Z</time>
      </trkpt>
      <trkpt lat="48.44836" lon="-3.83824">
        <ele>214</ele>
        <time>2017-05-25T15:44:00Z</time>
      </trkpt>
      <trkpt lat="48.44848" lon="-3.83844">
        <ele>215</ele>
        <time>2017-05-25T15:44:20Z</time>
      </trkpt>
      <trkpt lat="48.44854" lon="-3.8386">
        <ele>215</ele>
        <time>2017-05-25T15:44:35Z</time>
      </trkpt>
      <trkpt lat="48.44868" lon="-3.83869">
        <ele>216</ele>
        <time>2017-05-25T15:44:55Z</time>
      </trkpt>
      <trkpt lat="48.44873" lon="-3.83878">
        <ele>216</ele>
        <time>2017-05-25T15:45:05Z</time>
      </trkpt>
      <trkpt lat="48.44889" lon="-3.83888">
        <ele>218</ele>
        <time>2017-05-25T15:45:35Z</time>
      </trkpt>
      <trkpt lat="48.4489" lon="-3.83896">
        <ele>218</ele>
        <time>2017-05-25T15:45:50Z</time>
      </trkpt>
      <trkpt lat="48.44905" lon="-3.83908">
        <ele>220</ele>
        <time>2017-05-25T15:46:00Z</time>
      </trkpt>
      <trkpt lat="48.44904" lon="-3.83913">
        <ele>220</ele>
        <time>2017-05-25T15:46:10Z</time>
      </trkpt>
      <trkpt lat="48.44924" lon="-3.8394">
        <ele>222</ele>
        <time>2017-05-25T15:46:50Z</time>
      </trkpt>
      <trkpt lat="48.44942" lon="-3.83951">
        <ele>224</ele>
        <time>2017-05-25T15:46:55Z</time>
      </trkpt>
      <trkpt lat="48.44981" lon="-3.83969">
        <ele>229</ele>
        <time>2017-05-25T15:47:20Z</time>
      </trkpt>
      <trkpt lat="48.44994" lon="-3.83986">
        <ele>231</ele>
        <time>2017-05-25T15:47:40Z</time>
      </trkpt>
      <trkpt lat="48.45007" lon="-3.83997">
        <ele>233</ele>
        <time>2017-05-25T15:47:55Z</time>
      </trkpt>
      <trkpt lat="48.45013" lon="-3.84011">
        <ele>235</ele>
        <time>2017-05-25T15:48:10Z</time>
      </trkpt>
      <trkpt lat="48.45018" lon="-3.8402">
        <ele>236</ele>
        <time>2017-05-25T15:48:20Z</time>
      </trkpt>
      <trkpt lat="48.45029" lon="-3.84024">
        <ele>238</ele>
        <time>2017-05-25T15:48:30Z</time>
      </trkpt>
      <trkpt lat="48.45044" lon="-3.84043">
        <ele>241</ele>
        <time>2017-05-25T15:49:00Z</time>
      </trkpt>
      <trkpt lat="48.45075" lon="-3.84054">
        <ele>243</ele>
        <time>2017-05-25T15:49:30Z</time>
      </trkpt>
      <trkpt lat="48.4508" lon="-3.84055">
        <ele>243</ele>
        <time>2017-05-25T15:49:35Z</time>
      </trkpt>
      <trkpt lat="48.4509" lon="-3.84063">
        <ele>244</ele>
        <time>2017-05-25T15:49:50Z</time>
      </trkpt>
      <trkpt lat="48.45107" lon="-3.84073">
        <ele>246</ele>
        <time>2017-05-25T15:50:10Z</time>
      </trkpt>
      <trkpt lat="48.45162" lon="-3.84124">
        <ele>252</ele>
        <time>2017-05-25T15:51:10Z</time>
      </trkpt>
      <trkpt lat="48.45172" lon="-3.84138">
        <ele>253</ele>
        <time>2017-05-25T15:51:25Z</time>
      </trkpt>
      <trkpt lat="48.45189" lon="-3.84149">
        <ele>253</ele>
        <time>2017-05-25T15:51:40Z</time>
      </trkpt>
      <trkpt lat="48.45211" lon="-3.84172">
        <ele>254</ele>
        <time>2017-05-25T15:52:05Z</time>
      </trkpt>
      <trkpt lat="48.45225" lon="-3.84181">
        <ele>255</ele>
        <time>2017-05-25T15:52:20Z</time>
      </trkpt>
      <trkpt lat="48.45237" lon="-3.8418">
        <ele>255</ele>
        <time>2017-05-25T15:52:30Z</time>
      </trkpt>
      <trkpt lat="48.45245" lon="-3.84175">
        <ele>256</ele>
        <time>2017-05-25T15:52:40Z</time>
      </trkpt>
      <trkpt lat="48.45253" lon="-3.84165">
        <ele>256</ele>
        <time>2017-05-25T15:52:50Z</time>
      </trkpt>
      <trkpt lat="48.45274" lon="-3.8413">
        <ele>256</ele>
        <time>2017-05-25T15:53:20Z</time>
      </trkpt>
      <trkpt lat="48.45285" lon="-3.84108">
        <ele>256</ele>
        <time>2017-05-25T15:53:35Z</time>
      </trkpt>
      <trkpt lat="48.45311" lon="-3.84072">
        <ele>256</ele>
        <time>2017-05-25T15:54:05Z</time>
      </trkpt>
      <trkpt lat="48.45319" lon="-3.84046">
        <ele>256</ele>
        <time>2017-05-25T15:54:25Z</time>
      </trkpt>
      <trkpt lat="48.45324" lon="-3.84032">
        <ele>256</ele>
        <time>2017-05-25T15:54:35Z</time>
      </trkpt>
      <trkpt lat="48.45321" lon="-3.83996">
        <ele>255</ele>
        <time>2017-05-25T15:54:55Z</time>
      </trkpt>
      <trkpt lat="48.45324" lon="-3.83963">
        <ele>254</ele>
        <time>2017-05-25T15:55:15Z</time>
      </trkpt>
      <trkpt lat="48.45327" lon="-3.83955">
        <ele>254</ele>
        <time>2017-05-25T15:55:20Z</time>
      </trkpt>
      <trkpt lat="48.4534" lon="-3.83908">
        <ele>252</ele>
        <time>2017-05-25T15:55:50Z</time>
      </trkpt>
      <trkpt lat="48.45353" lon="-3.83878">
        <ele>251</ele>
        <time>2017-05-25T15:56:15Z</time>
      </trkpt>
      <trkpt lat="48.45371" lon="-3.83868">
        <ele>251</ele>
        <time>2017-05-25T15:56:45Z</time>
      </trkpt>
      <trkpt lat="48.45399" lon="-3.83867">
        <ele>248</ele>
        <time>2017-05-25T15:57:20Z</time>
      </trkpt>
      <trkpt lat="48.45417" lon="-3.83899">
        <ele>246</ele>
        <time>2017-05-25T15:57:50Z</time>
      </trkpt>
      <trkpt lat="48.45422" lon="-3.839">
        <ele>245</ele>
        <time>2017-05-25T15:57:55Z</time>
      </trkpt>
      <trkpt lat="48.45428" lon="-3.83881">
        <ele>243</ele>
        <time>2017-05-25T15:58:10Z</time>
      </trkpt>
      <trkpt lat="48.4543" lon="-3.83874">
        <ele>243</ele>
        <time>2017-05-25T15:58:15Z</time>
      </trkpt>
      <trkpt lat="48.4543" lon="-3.83852">
        <ele>241</ele>
        <time>2017-05-25T15:58:30Z</time>
      </trkpt>
      <trkpt lat="48.45428" lon="-3.83818">
        <ele>239</ele>
        <time>2017-05-25T15:58:50Z</time>
      </trkpt>
      <trkpt lat="48.45415" lon="-3.83785">
        <ele>237</ele>
        <time>2017-05-25T15:59:10Z</time>
      </trkpt>
      <trkpt lat="48.45405" lon="-3.83763">
        <ele>236</ele>
        <time>2017-05-25T15:59:25Z</time>
      </trkpt>
      <trkpt lat="48.454" lon="-3.83731">
        <ele>234</ele>
        <time>2017-05-25T15:59:45Z</time>
      </trkpt>
      <trkpt lat="48.45385" lon="-3.83683">
        <ele>233</ele>
        <time>2017-05-25T16:00:15Z</time>
      </trkpt>
      <trkpt lat="48.45382" lon="-3.83669">
        <ele>233</ele>
        <time>2017-05-25T16:00:25Z</time>
      </trkpt>
      <trkpt lat="48.4538" lon="-3.83633">
        <ele>231</ele>
        <time>2017-05-25T16:00:45Z</time>
      </trkpt>
      <trkpt lat="48.4538" lon="-3.83608">
        <ele>229</ele>
        <time>2017-05-25T16:01:00Z</time>
      </trkpt>
      <trkpt lat="48.45378" lon="-3.83587">
        <ele>229</ele>
        <time>2017-05-25T16:01:10Z</time>
      </trkpt>
      <trkpt lat="48.4538" lon="-3.83532">
        <ele>225</ele>
        <time>2017-05-25T16:01:45Z</time>
      </trkpt>
      <trkpt lat="48.45382" lon="-3.8352">
        <ele>225</ele>
        <time>2017-05-25T16:01:55Z</time>
      </trkpt>
      <trkpt lat="48.4538" lon="-3.83498">
        <ele>224</ele>
        <time>2017-05-25T16:02:05Z</time>
      </trkpt>
      <trkpt lat="48.45382" lon="-3.83439">
        <ele>220</ele>
        <time>2017-05-25T16:02:50Z</time>
      </trkpt>
      <trkpt lat="48.45381" lon="-3.83439">
        <ele>220</ele>
        <time>2017-05-25T16:03:05Z</time>
      </trkpt>
      <trkpt lat="48.4538" lon="-3.83435">
        <ele>220</ele>
        <time>2017-05-25T16:03:25Z</time>
      </trkpt>
      <trkpt lat="48.45382" lon="-3.83436">
        <ele>220</ele>
        <time>2017-05-25T16:03:45Z</time>
      </trkpt>
      <trkpt lat="48.45382" lon="-3.83436">
        <ele>220</ele>
        <time>2017-05-25T16:04:15Z</time>
      </trkpt>
      <trkpt lat="48.45383" lon="-3.83432">
        <ele>220</ele>
        <time>2017-05-25T16:04:50Z</time>
      </trkpt>
      <trkpt lat="48.45382" lon="-3.83431">
        <ele>220</ele>
        <time>2017-05-25T16:05:00Z</time>
      </trkpt>
      <trkpt lat="48.45384" lon="-3.83428">
        <ele>220</ele>
        <time>2017-05-25T16:05:15Z</time>
      </trkpt>
      <trkpt lat="48.45383" lon="-3.83418">
        <ele>219</ele>
        <time>2017-05-25T16:05:25Z</time>
      </trkpt>
      <trkpt lat="48.45382" lon="-3.83394">
        <ele>219</ele>
        <time>2017-05-25T16:05:40Z</time>
      </trkpt>
      <trkpt lat="48.45384" lon="-3.83365">
        <ele>220</ele>
        <time>2017-05-25T16:06:00Z</time>
      </trkpt>
      <trkpt lat="48.4539" lon="-3.83344">
        <ele>218</ele>
        <time>2017-05-25T16:06:15Z</time>
      </trkpt>
      <trkpt lat="48.45409" lon="-3.83311">
        <ele>214</ele>
        <time>2017-05-25T16:06:40Z</time>
      </trkpt>
      <trkpt lat="48.45417" lon="-3.83293">
        <ele>210</ele>
        <time>2017-05-25T16:06:55Z</time>
      </trkpt>
      <trkpt lat="48.45437" lon="-3.8327">
        <ele>208</ele>
        <time>2017-05-25T16:07:15Z</time>
      </trkpt>
      <trkpt lat="48.45446" lon="-3.83245">
        <ele>208</ele>
        <time>2017-05-25T16:07:30Z</time>
      </trkpt>
      <trkpt lat="48.45455" lon="-3.83201">
        <ele>204</ele>
        <time>2017-05-25T16:08:00Z</time>
      </trkpt>
      <trkpt lat="48.45463" lon="-3.83181">
        <ele>202</ele>
        <time>2017-05-25T16:08:10Z</time>
      </trkpt>
      <trkpt lat="48.45484" lon="-3.83148">
        <ele>208</ele>
        <time>2017-05-25T16:08:35Z</time>
      </trkpt>
      <trkpt lat="48.4549" lon="-3.83133">
        <ele>207</ele>
        <time>2017-05-25T16:09:00Z</time>
      </trkpt>
      <trkpt lat="48.455" lon="-3.83114">
        <ele>206</ele>
        <time>2017-05-25T16:09:20Z</time>
      </trkpt>
      <trkpt lat="48.45513" lon="-3.83105">
        <ele>204</ele>
        <time>2017-05-25T16:09:35Z</time>
      </trkpt>
      <trkpt lat="48.45523" lon="-3.83102">
        <ele>203</ele>
        <time>2017-05-25T16:09:45Z</time>
      </trkpt>
      <trkpt lat="48.45539" lon="-3.83107">
        <ele>203</ele>
        <time>2017-05-25T16:10:05Z</time>
      </trkpt>
      <trkpt lat="48.45567" lon="-3.8311">
        <ele>201</ele>
        <time>2017-05-25T16:10:30Z</time>
      </trkpt>
      <trkpt lat="48.45579" lon="-3.83114">
        <ele>202</ele>
        <time>2017-05-25T16:10:40Z</time>
      </trkpt>
      <trkpt lat="48.45618" lon="-3.83124">
        <ele>202</ele>
        <time>2017-05-25T16:11:15Z</time>
      </trkpt>
      <trkpt lat="48.45649" lon="-3.83131">
        <ele>202</ele>
        <time>2017-05-25T16:11:40Z</time>
      </trkpt>
      <trkpt lat="48.4566" lon="-3.83135">
        <ele>202</ele>
        <time>2017-05-25T16:11:50Z</time>
      </trkpt>
      <trkpt lat="48.45687" lon="-3.83142">
        <ele>204</ele>
        <time>2017-05-25T16:12:15Z</time>
      </trkpt>
      <trkpt lat="48.45707" lon="-3.83146">
        <ele>203</ele>
        <time>2017-05-25T16:12:30Z</time>
      </trkpt>
      <trkpt lat="48.45712" lon="-3.83147">
        <ele>203</ele>
        <time>2017-05-25T16:12:35Z</time>
      </trkpt>
      <trkpt lat="48.45729" lon="-3.83155">
        <ele>204</ele>
        <time>2017-05-25T16:12:50Z</time>
      </trkpt>
      <trkpt lat="48.45735" lon="-3.83154">
        <ele>204</ele>
        <time>2017-05-25T16:12:55Z</time>
      </trkpt>
      <trkpt lat="48.45779" lon="-3.83139">
        <ele>205</ele>
        <time>2017-05-25T16:13:35Z</time>
      </trkpt>
      <trkpt lat="48.458" lon="-3.83128">
        <ele>205</ele>
        <time>2017-05-25T16:13:55Z</time>
      </trkpt>
      <trkpt lat="48.45808" lon="-3.83119">
        <ele>205</ele>
        <time>2017-05-25T16:14:05Z</time>
      </trkpt>
      <trkpt lat="48.45811" lon="-3.83113">
        <ele>205</ele>
        <time>2017-05-25T16:14:10Z</time>
      </trkpt>
      <trkpt lat="48.45826" lon="-3.83077">
        <ele>206</ele>
        <time>2017-05-25T16:14:35Z</time>
      </trkpt>
      <trkpt lat="48.45831" lon="-3.83038">
        <ele>205</ele>
        <time>2017-05-25T16:14:55Z</time>
      </trkpt>
      <trkpt lat="48.45834" lon="-3.83025">
        <ele>205</ele>
        <time>2017-05-25T16:15:05Z</time>
      </trkpt>
      <trkpt lat="48.45842" lon="-3.82986">
        <ele>206</ele>
        <time>2017-05-25T16:15:30Z</time>
      </trkpt>
      <trkpt lat="48.45853" lon="-3.82927">
        <ele>206</ele>
        <time>2017-05-25T16:16:05Z</time>
      </trkpt>
      <trkpt lat="48.45849" lon="-3.82912">
        <ele>205</ele>
        <time>2017-05-25T16:16:15Z</time>
      </trkpt>
      <trkpt lat="48.45851" lon="-3.82886">
        <ele>204</ele>
        <time>2017-05-25T16:16:30Z</time>
      </trkpt>
      <trkpt lat="48.45855" lon="-3.82871">
        <ele>205</ele>
        <time>2017-05-25T16:16:40Z</time>
      </trkpt>
      <trkpt lat="48.45858" lon="-3.82854">
        <ele>205</ele>
        <time>2017-05-25T16:16:50Z</time>
      </trkpt>
      <trkpt lat="48.45866" lon="-3.8282">
        <ele>205</ele>
        <time>2017-05-25T16:17:10Z</time>
      </trkpt>
      <trkpt lat="48.45888" lon="-3.82723">
        <ele>205</ele>
        <time>2017-05-25T16:18:10Z</time>
      </trkpt>
      <trkpt lat="48.45892" lon="-3.82706">
        <ele>204</ele>
        <time>2017-05-25T16:18:20Z</time>
      </trkpt>
      <trkpt lat="48.45903" lon="-3.82682">
        <ele>204</ele>
        <time>2017-05-25T16:18:35Z</time>
      </trkpt>
      <trkpt lat="48.45927" lon="-3.82641">
        <ele>205</ele>
        <time>2017-05-25T16:19:05Z</time>
      </trkpt>
      <trkpt lat="48.45938" lon="-3.82611">
        <ele>206</ele>
        <time>2017-05-25T16:19:30Z</time>
      </trkpt>
      <trkpt lat="48.45948" lon="-3.82593">
        <ele>206</ele>
        <time>2017-05-25T16:19:50Z</time>
      </trkpt>
      <trkpt lat="48.45953" lon="-3.82589">
        <ele>206</ele>
        <time>2017-05-25T16:19:55Z</time>
      </trkpt>
      <trkpt lat="48.45958" lon="-3.82588">
        <ele>206</ele>
        <time>2017-05-25T16:20:00Z</time>
      </trkpt>
      <trkpt lat="48.45984" lon="-3.82614">
        <ele>211</ele>
        <time>2017-05-25T16:20:35Z</time>
      </trkpt>
      <trkpt lat="48.45996" lon="-3.8265">
        <ele>213</ele>
        <time>2017-05-25T16:21:00Z</time>
      </trkpt>
      <trkpt lat="48.46004" lon="-3.82663">
        <ele>214</ele>
        <time>2017-05-25T16:21:15Z</time>
      </trkpt>
      <trkpt lat="48.46012" lon="-3.8267">
        <ele>215</ele>
        <time>2017-05-25T16:21:25Z</time>
      </trkpt>
      <trkpt lat="48.46032" lon="-3.82684">
        <ele>216</ele>
        <time>2017-05-25T16:21:45Z</time>
      </trkpt>
      <trkpt lat="48.46042" lon="-3.82688">
        <ele>217</ele>
        <time>2017-05-25T16:21:55Z</time>
      </trkpt>
      <trkpt lat="48.46054" lon="-3.8269">
        <ele>220</ele>
        <time>2017-05-25T16:22:10Z</time>
      </trkpt>
      <trkpt lat="48.4609" lon="-3.82684">
        <ele>223</ele>
        <time>2017-05-25T16:22:50Z</time>
      </trkpt>
      <trkpt lat="48.461" lon="-3.82681">
        <ele>223</ele>
        <time>2017-05-25T16:23:00Z</time>
      </trkpt>
      <trkpt lat="48.46111" lon="-3.8268">
        <ele>223</ele>
        <time>2017-05-25T16:23:15Z</time>
      </trkpt>
      <trkpt lat="48.46138" lon="-3.82685">
        <ele>224</ele>
        <time>2017-05-25T16:23:45Z</time>
      </trkpt>
      <trkpt lat="48.46165" lon="-3.82684">
        <ele>222</ele>
        <time>2017-05-25T16:24:10Z</time>
      </trkpt>
      <trkpt lat="48.46176" lon="-3.82687">
        <ele>221</ele>
        <time>2017-05-25T16:24:20Z</time>
      </trkpt>
      <trkpt lat="48.46191" lon="-3.82695">
        <ele>221</ele>
        <time>2017-05-25T16:24:35Z</time>
      </trkpt>
      <trkpt lat="48.46202" lon="-3.827">
        <ele>221</ele>
        <time>2017-05-25T16:24:45Z</time>
      </trkpt>
      <trkpt lat="48.46229" lon="-3.8272">
        <ele>219</ele>
        <time>2017-05-25T16:25:10Z</time>
      </trkpt>
      <trkpt lat="48.46239" lon="-3.82729">
        <ele>219</ele>
        <time>2017-05-25T16:25:20Z</time>
      </trkpt>
      <trkpt lat="48.46258" lon="-3.82744">
        <ele>220</ele>
        <time>2017-05-25T16:25:40Z</time>
      </trkpt>
      <trkpt lat="48.46263" lon="-3.82746">
        <ele>221</ele>
        <time>2017-05-25T16:25:45Z</time>
      </trkpt>
      <trkpt lat="48.46276" lon="-3.82748">
        <ele>222</ele>
        <time>2017-05-25T16:26:00Z</time>
      </trkpt>
      <trkpt lat="48.4629" lon="-3.82763">
        <ele>224</ele>
        <time>2017-05-25T16:26:20Z</time>
      </trkpt>
      <trkpt lat="48.46344" lon="-3.828">
        <ele>221</ele>
        <time>2017-05-25T16:27:15Z</time>
      </trkpt>
      <trkpt lat="48.46363" lon="-3.8281">
        <ele>222</ele>
        <time>2017-05-25T16:27:35Z</time>
      </trkpt>
      <trkpt lat="48.46372" lon="-3.82813">
        <ele>220</ele>
        <time>2017-05-25T16:27:40Z</time>
      </trkpt>
      <trkpt lat="48.46394" lon="-3.82816">
        <ele>217</ele>
        <time>2017-05-25T16:27:55Z</time>
      </trkpt>
      <trkpt lat="48.46402" lon="-3.82814">
        <ele>216</ele>
        <time>2017-05-25T16:28:00Z</time>
      </trkpt>
      <trkpt lat="48.46457" lon="-3.82815">
        <ele>213</ele>
        <time>2017-05-25T16:28:50Z</time>
      </trkpt>
      <trkpt lat="48.46471" lon="-3.8282">
        <ele>214</ele>
        <time>2017-05-25T16:29:05Z</time>
      </trkpt>
      <trkpt lat="48.46485" lon="-3.82823">
        <ele>216</ele>
        <time>2017-05-25T16:29:20Z</time>
      </trkpt>
      <trkpt lat="48.46512" lon="-3.82833">
        <ele>217</ele>
        <time>2017-05-25T16:29:45Z</time>
      </trkpt>
      <trkpt lat="48.46535" lon="-3.8283">
        <ele>215</ele>
        <time>2017-05-25T16:30:05Z</time>
      </trkpt>
      <trkpt lat="48.46551" lon="-3.82825">
        <ele>215</ele>
        <time>2017-05-25T16:30:20Z</time>
      </trkpt>
      <trkpt lat="48.46578" lon="-3.82834">
        <ele>212</ele>
        <time>2017-05-25T16:30:45Z</time>
      </trkpt>
      <trkpt lat="48.46583" lon="-3.82834">
        <ele>213</ele>
        <time>2017-05-25T16:30:50Z</time>
      </trkpt>
      <trkpt lat="48.46603" lon="-3.82846">
        <ele>209</ele>
        <time>2017-05-25T16:31:10Z</time>
      </trkpt>
      <trkpt lat="48.46616" lon="-3.8285">
        <ele>208</ele>
        <time>2017-05-25T16:31:25Z</time>
      </trkpt>
      <trkpt lat="48.4663" lon="-3.8285">
        <ele>209</ele>
        <time>2017-05-25T16:31:40Z</time>
      </trkpt>
      <trkpt lat="48.46657" lon="-3.82857">
        <ele>209</ele>
        <time>2017-05-25T16:32:05Z</time>
      </trkpt>
      <trkpt lat="48.4668" lon="-3.82857">
        <ele>210</ele>
        <time>2017-05-25T16:32:25Z</time>
      </trkpt>
      <trkpt lat="48.46734" lon="-3.82863">
        <ele>204</ele>
        <time>2017-05-25T16:33:10Z</time>
      </trkpt>
      <trkpt lat="48.46756" lon="-3.8287">
        <ele>202</ele>
        <time>2017-05-25T16:33:25Z</time>
      </trkpt>
      <trkpt lat="48.46778" lon="-3.82863">
        <ele>194</ele>
        <time>2017-05-25T16:33:45Z</time>
      </trkpt>
      <trkpt lat="48.46788" lon="-3.82855">
        <ele>192</ele>
        <time>2017-05-25T16:33:55Z</time>
      </trkpt>
      <trkpt lat="48.46806" lon="-3.82836">
        <ele>196</ele>
        <time>2017-05-25T16:34:15Z</time>
      </trkpt>
      <trkpt lat="48.46831" lon="-3.82779">
        <ele>192</ele>
        <time>2017-05-25T16:34:50Z</time>
      </trkpt>
      <trkpt lat="48.46838" lon="-3.82766">
        <ele>191</ele>
        <time>2017-05-25T16:35:00Z</time>
      </trkpt>
      <trkpt lat="48.46841" lon="-3.82734">
        <ele>193</ele>
        <time>2017-05-25T16:35:15Z</time>
      </trkpt>
      <trkpt lat="48.46838" lon="-3.82702">
        <ele>190</ele>
        <time>2017-05-25T16:35:35Z</time>
      </trkpt>
      <trkpt lat="48.46831" lon="-3.82681">
        <ele>186</ele>
        <time>2017-05-25T16:35:50Z</time>
      </trkpt>
      <trkpt lat="48.46821" lon="-3.82663">
        <ele>180</ele>
        <time>2017-05-25T16:36:05Z</time>
      </trkpt>
      <trkpt lat="48.46804" lon="-3.82624">
        <ele>173</ele>
        <time>2017-05-25T16:36:30Z</time>
      </trkpt>
      <trkpt lat="48.46804" lon="-3.82603">
        <ele>170</ele>
        <time>2017-05-25T16:36:45Z</time>
      </trkpt>
      <trkpt lat="48.46813" lon="-3.8259">
        <ele>170</ele>
        <time>2017-05-25T16:36:55Z</time>
      </trkpt>
      <trkpt lat="48.46846" lon="-3.8256">
        <ele>165</ele>
        <time>2017-05-25T16:37:30Z</time>
      </trkpt>
      <trkpt lat="48.46857" lon="-3.82553">
        <ele>166</ele>
        <time>2017-05-25T16:37:40Z</time>
      </trkpt>
      <trkpt lat="48.46878" lon="-3.82555">
        <ele>165</ele>
        <time>2017-05-25T16:38:00Z</time>
      </trkpt>
      <trkpt lat="48.46901" lon="-3.82563">
        <ele>164</ele>
        <time>2017-05-25T16:38:20Z</time>
      </trkpt>
      <trkpt lat="48.46923" lon="-3.82572">
        <ele>163</ele>
        <time>2017-05-25T16:38:40Z</time>
      </trkpt>
      <trkpt lat="48.46946" lon="-3.82568">
        <ele>161</ele>
        <time>2017-05-25T16:38:55Z</time>
      </trkpt>
      <trkpt lat="48.46953" lon="-3.82554">
        <ele>160</ele>
        <time>2017-05-25T16:39:10Z</time>
      </trkpt>
      <trkpt lat="48.46955" lon="-3.82552">
        <ele>160</ele>
        <time>2017-05-25T16:39:30Z</time>
      </trkpt>
      <trkpt lat="48.46964" lon="-3.82531">
        <ele>158</ele>
        <time>2017-05-25T16:39:55Z</time>
      </trkpt>
      <trkpt lat="48.46983" lon="-3.82472">
        <ele>148</ele>
        <time>2017-05-25T16:40:25Z</time>
      </trkpt>
      <trkpt lat="48.46986" lon="-3.82461">
        <ele>148</ele>
        <time>2017-05-25T16:40:30Z</time>
      </trkpt>
      <trkpt lat="48.47013" lon="-3.82407">
        <ele>145</ele>
        <time>2017-05-25T16:41:05Z</time>
      </trkpt>
      <trkpt lat="48.47016" lon="-3.82396">
        <ele>144</ele>
        <time>2017-05-25T16:41:10Z</time>
      </trkpt>
      <trkpt lat="48.47016" lon="-3.82385">
        <ele>143</ele>
        <time>2017-05-25T16:41:15Z</time>
      </trkpt>
      <trkpt lat="48.47006" lon="-3.82371">
        <ele>140</ele>
        <time>2017-05-25T16:41:25Z</time>
      </trkpt>
      <trkpt lat="48.46992" lon="-3.82366">
        <ele>139</ele>
        <time>2017-05-25T16:41:35Z</time>
      </trkpt>
      <trkpt lat="48.46967" lon="-3.82351">
        <ele>138</ele>
        <time>2017-05-25T16:42:00Z</time>
      </trkpt>
      <trkpt lat="48.46941" lon="-3.82333">
        <ele>140</ele>
        <time>2017-05-25T16:42:35Z</time>
      </trkpt>
      <trkpt lat="48.46925" lon="-3.82325">
        <ele>142</ele>
        <time>2017-05-25T16:42:55Z</time>
      </trkpt>
      <trkpt lat="48.46922" lon="-3.82298">
        <ele>142</ele>
        <time>2017-05-25T16:43:10Z</time>
      </trkpt>
      <trkpt lat="48.46912" lon="-3.82255">
        <ele>142</ele>
        <time>2017-05-25T16:43:35Z</time>
      </trkpt>
      <trkpt lat="48.46924" lon="-3.82238">
        <ele>140</ele>
        <time>2017-05-25T16:43:50Z</time>
      </trkpt>
      <trkpt lat="48.46931" lon="-3.82239">
        <ele>140</ele>
        <time>2017-05-25T16:43:55Z</time>
      </trkpt>
      <trkpt lat="48.46954" lon="-3.82234">
        <ele>139</ele>
        <time>2017-05-25T16:44:15Z</time>
      </trkpt>
      <trkpt lat="48.46969" lon="-3.8223">
        <ele>140</ele>
        <time>2017-05-25T16:44:30Z</time>
      </trkpt>
      <trkpt lat="48.46988" lon="-3.82239">
        <ele>142</ele>
        <time>2017-05-25T16:44:50Z</time>
      </trkpt>
      <trkpt lat="48.47002" lon="-3.82236">
        <ele>142</ele>
        <time>2017-05-25T16:45:10Z</time>
      </trkpt>
      <trkpt lat="48.47007" lon="-3.82239">
        <ele>142</ele>
        <time>2017-05-25T16:45:20Z</time>
      </trkpt>
      <trkpt lat="48.4701" lon="-3.82239">
        <ele>143</ele>
        <time>2017-05-25T16:45:35Z</time>
      </trkpt>
      <trkpt lat="48.4701" lon="-3.8224">
        <ele>143</ele>
        <time>2017-05-25T16:45:55Z</time>
      </trkpt>
      <trkpt lat="48.47008" lon="-3.82238">
        <ele>142</ele>
        <time>2017-05-25T16:46:00Z</time>
      </trkpt>
      <trkpt lat="48.47008" lon="-3.82238">
        <ele>142</ele>
        <time>2017-05-25T16:46:30Z</time>
      </trkpt>
      <trkpt lat="48.47007" lon="-3.8224">
        <ele>142</ele>
        <time>2017-05-25T16:47:00Z</time>
      </trkpt>
      <trkpt lat="48.47007" lon="-3.82241">
        <ele>142</ele>
        <time>2017-05-25T16:47:25Z</time>
      </trkpt>
      <trkpt lat="48.47007" lon="-3.82242">
        <ele>142</ele>
        <time>2017-05-25T16:47:40Z</time>
      </trkpt>
      <trkpt lat="48.47006" lon="-3.82241">
        <ele>142</ele>
        <time>2017-05-25T16:48:10Z</time>
      </trkpt>
      <trkpt lat="48.47006" lon="-3.82242">
        <ele>142</ele>
        <time>2017-05-25T16:48:20Z</time>
      </trkpt>
      <trkpt lat="48.47007" lon="-3.82242">
        <ele>142</ele>
        <time>2017-05-25T16:48:30Z</time>
      </trkpt>
      <trkpt lat="48.47007" lon="-3.82242">
        <ele>142</ele>
        <time>2017-05-25T16:48:35Z</time>
      </trkpt>
      <trkpt lat="48.47005" lon="-3.82248">
        <ele>142</ele>
        <time>2017-05-25T16:48:55Z</time>
      </trkpt>
      <trkpt lat="48.47006" lon="-3.82253">
        <ele>143</ele>
        <time>2017-05-25T16:49:55Z</time>
      </trkpt>
      <trkpt lat="48.47005" lon="-3.82253">
        <ele>142</ele>
        <time>2017-05-25T16:50:05Z</time>
      </trkpt>
      <trkpt lat="48.47006" lon="-3.82253">
        <ele>143</ele>
        <time>2017-05-25T16:50:25Z</time>
      </trkpt>
      <trkpt lat="48.47007" lon="-3.82251">
        <ele>143</ele>
        <time>2017-05-25T16:50:40Z</time>
      </trkpt>
      <trkpt lat="48.47007" lon="-3.82251">
        <ele>143</ele>
        <time>2017-05-25T16:50:45Z</time>
      </trkpt>
      <trkpt lat="48.47009" lon="-3.82252">
        <ele>143</ele>
        <time>2017-05-25T16:51:15Z</time>
      </trkpt>
      <trkpt lat="48.4701" lon="-3.82251">
        <ele>143</ele>
        <time>2017-05-25T16:51:35Z</time>
      </trkpt>
      <trkpt lat="48.4701" lon="-3.8225">
        <ele>143</ele>
        <time>2017-05-25T16:51:40Z</time>
      </trkpt>
      <trkpt lat="48.47012" lon="-3.8225">
        <ele>144</ele>
        <time>2017-05-25T16:52:05Z</time>
      </trkpt>
      <trkpt lat="48.47012" lon="-3.8225">
        <ele>144</ele>
        <time>2017-05-25T16:52:10Z</time>
      </trkpt>
      <trkpt lat="48.4701" lon="-3.82247">
        <ele>143</ele>
        <time>2017-05-25T16:52:25Z</time>
      </trkpt>
      <trkpt lat="48.47008" lon="-3.82246">
        <ele>143</ele>
        <time>2017-05-25T16:52:30Z</time>
      </trkpt>
      <trkpt lat="48.47007" lon="-3.82249">
        <ele>143</ele>
        <time>2017-05-25T16:53:00Z</time>
      </trkpt>
      <trkpt lat="48.47003" lon="-3.82248">
        <ele>142</ele>
        <time>2017-05-25T16:53:20Z</time>
      </trkpt>
      <trkpt lat="48.47003" lon="-3.82247">
        <ele>142</ele>
        <time>2017-05-25T16:53:30Z</time>
      </trkpt>
      <trkpt lat="48.47004" lon="-3.82245">
        <ele>142</ele>
        <time>2017-05-25T16:53:45Z</time>
      </trkpt>
      <trkpt lat="48.47005" lon="-3.82243">
        <ele>142</ele>
        <time>2017-05-25T16:54:10Z</time>
      </trkpt>
      <trkpt lat="48.47006" lon="-3.82243">
        <ele>142</ele>
        <time>2017-05-25T16:54:15Z</time>
      </trkpt>
      <trkpt lat="48.47005" lon="-3.82244">
        <ele>142</ele>
        <time>2017-05-25T16:54:30Z</time>
      </trkpt>
      <trkpt lat="48.47006" lon="-3.82241">
        <ele>142</ele>
        <time>2017-05-25T16:54:55Z</time>
      </trkpt>
      <trkpt lat="48.47004" lon="-3.82241">
        <ele>142</ele>
        <time>2017-05-25T16:55:15Z</time>
      </trkpt>
      <trkpt lat="48.47004" lon="-3.82243">
        <ele>142</ele>
        <time>2017-05-25T16:55:30Z</time>
      </trkpt>
      <trkpt lat="48.47005" lon="-3.82241">
        <ele>142</ele>
        <time>2017-05-25T16:55:55Z</time>
      </trkpt>
      <trkpt lat="48.47003" lon="-3.82245">
        <ele>142</ele>
        <time>2017-05-25T16:56:30Z</time>
      </trkpt>
      <trkpt lat="48.47003" lon="-3.82247">
        <ele>142</ele>
        <time>2017-05-25T16:56:50Z</time>
      </trkpt>
      <trkpt lat="48.47002" lon="-3.82245">
        <ele>142</ele>
        <time>2017-05-25T16:57:00Z</time>
      </trkpt>
      <trkpt lat="48.47002" lon="-3.82244">
        <ele>142</ele>
        <time>2017-05-25T16:57:20Z</time>
      </trkpt>
      <trkpt lat="48.47003" lon="-3.82241">
        <ele>142</ele>
        <time>2017-05-25T16:57:25Z</time>
      </trkpt>
      <trkpt lat="48.47004" lon="-3.8224">
        <ele>142</ele>
        <time>2017-05-25T16:57:45Z</time>
      </trkpt>
      <trkpt lat="48.47004" lon="-3.82241">
        <ele>142</ele>
        <time>2017-05-25T16:58:40Z</time>
      </trkpt>
      <trkpt lat="48.47003" lon="-3.8224">
        <ele>142</ele>
        <time>2017-05-25T16:59:00Z</time>
      </trkpt>
      <trkpt lat="48.47003" lon="-3.82239">
        <ele>142</ele>
        <time>2017-05-25T16:59:15Z</time>
      </trkpt>
      <trkpt lat="48.47004" lon="-3.82239">
        <ele>142</ele>
        <time>2017-05-25T16:59:25Z</time>
      </trkpt>
      <trkpt lat="48.47004" lon="-3.8224">
        <ele>142</ele>
        <time>2017-05-25T17:00:10Z</time>
      </trkpt>
      <trkpt lat="48.47005" lon="-3.82244">
        <ele>142</ele>
        <time>2017-05-25T17:00:15Z</time>
      </trkpt>
      <trkpt lat="48.47004" lon="-3.82242">
        <ele>142</ele>
        <time>2017-05-25T17:00:30Z</time>
      </trkpt>
      <trkpt lat="48.47005" lon="-3.82238">
        <ele>142</ele>
        <time>2017-05-25T17:01:05Z</time>
      </trkpt>
      <trkpt lat="48.47004" lon="-3.82237">
        <ele>142</ele>
        <time>2017-05-25T17:01:10Z</time>
      </trkpt>
      <trkpt lat="48.47003" lon="-3.82241">
        <ele>142</ele>
        <time>2017-05-25T17:01:20Z</time>
      </trkpt>
      <trkpt lat="48.47002" lon="-3.82243">
        <ele>142</ele>
        <time>2017-05-25T17:01:30Z</time>
      </trkpt>
      <trkpt lat="48.46997" lon="-3.82245">
        <ele>142</ele>
        <time>2017-05-25T17:01:45Z</time>
      </trkpt>
      <trkpt lat="48.46998" lon="-3.82248">
        <ele>142</ele>
        <time>2017-05-25T17:01:55Z</time>
      </trkpt>
      <trkpt lat="48.46998" lon="-3.82245">
        <ele>142</ele>
        <time>2017-05-25T17:02:10Z</time>
      </trkpt>
      <trkpt lat="48.47001" lon="-3.82241">
        <ele>142</ele>
        <time>2017-05-25T17:02:25Z</time>
      </trkpt>
      <trkpt lat="48.47004" lon="-3.82242">
        <ele>142</ele>
        <time>2017-05-25T17:02:40Z</time>
      </trkpt>
      <trkpt lat="48.47005" lon="-3.82241">
        <ele>142</ele>
        <time>2017-05-25T17:02:50Z</time>
      </trkpt>
      <trkpt lat="48.47004" lon="-3.82246">
        <ele>142</ele>
        <time>2017-05-25T17:03:30Z</time>
      </trkpt>
      <trkpt lat="48.47004" lon="-3.82247">
        <ele>142</ele>
        <time>2017-05-25T17:03:45Z</time>
      </trkpt>
      <trkpt lat="48.47004" lon="-3.82246">
        <ele>142</ele>
        <time>2017-05-25T17:04:05Z</time>
      </trkpt>
      <trkpt lat="48.47003" lon="-3.82245">
        <ele>142</ele>
        <time>2017-05-25T17:04:40Z</time>
      </trkpt>
      <trkpt lat="48.47004" lon="-3.82243">
        <ele>142</ele>
        <time>2017-05-25T17:05:05Z</time>
      </trkpt>
      <trkpt lat="48.47004" lon="-3.82243">
        <ele>142</ele>
        <time>2017-05-25T17:05:30Z</time>
      </trkpt>
      <trkpt lat="48.47003" lon="-3.82244">
        <ele>142</ele>
        <time>2017-05-25T17:05:35Z</time>
      </trkpt>
      <trkpt lat="48.47007" lon="-3.82244">
        <ele>142</ele>
        <time>2017-05-25T17:06:00Z</time>
      </trkpt>
      <trkpt lat="48.47007" lon="-3.82246">
        <ele>142</ele>
        <time>2017-05-25T17:06:15Z</time>
      </trkpt>
      <trkpt lat="48.47006" lon="-3.82247">
        <ele>142</ele>
        <time>2017-05-25T17:06:30Z</time>
      </trkpt>
      <trkpt lat="48.47004" lon="-3.82245">
        <ele>142</ele>
        <time>2017-05-25T17:07:00Z</time>
      </trkpt>
      <trkpt lat="48.47001" lon="-3.82245">
        <ele>142</ele>
        <time>2017-05-25T17:07:20Z</time>
      </trkpt>
      <trkpt lat="48.47002" lon="-3.82246">
        <ele>142</ele>
        <time>2017-05-25T17:07:30Z</time>
      </trkpt>
      <trkpt lat="48.47001" lon="-3.8225">
        <ele>142</ele>
        <time>2017-05-25T17:07:50Z</time>
      </trkpt>
      <trkpt lat="48.47003" lon="-3.82254">
        <ele>142</ele>
        <time>2017-05-25T17:08:30Z</time>
      </trkpt>
      <trkpt lat="48.47001" lon="-3.82254">
        <ele>142</ele>
        <time>2017-05-25T17:09:05Z</time>
      </trkpt>
      <trkpt lat="48.47002" lon="-3.82253">
        <ele>142</ele>
        <time>2017-05-25T17:09:35Z</time>
      </trkpt>
      <trkpt lat="48.47" lon="-3.82252">
        <ele>142</ele>
        <time>2017-05-25T17:09:50Z</time>
      </trkpt>
      <trkpt lat="48.47" lon="-3.82252">
        <ele>142</ele>
        <time>2017-05-25T17:10:00Z</time>
      </trkpt>
      <trkpt lat="48.47003" lon="-3.82256">
        <ele>142</ele>
        <time>2017-05-25T17:10:25Z</time>
      </trkpt>
      <trkpt lat="48.47002" lon="-3.82256">
        <ele>142</ele>
        <time>2017-05-25T17:10:35Z</time>
      </trkpt>
      <trkpt lat="48.47003" lon="-3.82252">
        <ele>142</ele>
        <time>2017-05-25T17:11:10Z</time>
      </trkpt>
      <trkpt lat="48.47002" lon="-3.82251">
        <ele>142</ele>
        <time>2017-05-25T17:11:25Z</time>
      </trkpt>
      <trkpt lat="48.47003" lon="-3.82253">
        <ele>142</ele>
        <time>2017-05-25T17:11:40Z</time>
      </trkpt>
      <trkpt lat="48.47004" lon="-3.82253">
        <ele>142</ele>
        <time>2017-05-25T17:11:50Z</time>
      </trkpt>
      <trkpt lat="48.47005" lon="-3.82252">
        <ele>142</ele>
        <time>2017-05-25T17:12:00Z</time>
      </trkpt>
      <trkpt lat="48.47003" lon="-3.82252">
        <ele>142</ele>
        <time>2017-05-25T17:12:40Z</time>
      </trkpt>
      <trkpt lat="48.47004" lon="-3.82249">
        <ele>142</ele>
        <time>2017-05-25T17:13:10Z</time>
      </trkpt>
      <trkpt lat="48.47004" lon="-3.82248">
        <ele>142</ele>
        <time>2017-05-25T17:13:15Z</time>
      </trkpt>
      <trkpt lat="48.47002" lon="-3.82249">
        <ele>142</ele>
        <time>2017-05-25T17:13:40Z</time>
      </trkpt>
      <trkpt lat="48.47001" lon="-3.8225">
        <ele>142</ele>
        <time>2017-05-25T17:13:55Z</time>
      </trkpt>
      <trkpt lat="48.47002" lon="-3.82247">
        <ele>142</ele>
        <time>2017-05-25T17:14:35Z</time>
      </trkpt>
      <trkpt lat="48.47004" lon="-3.82246">
        <ele>142</ele>
        <time>2017-05-25T17:14:45Z</time>
      </trkpt>
      <trkpt lat="48.47004" lon="-3.82247">
        <ele>142</ele>
        <time>2017-05-25T17:15:10Z</time>
      </trkpt>
      <trkpt lat="48.47003" lon="-3.82245">
        <ele>142</ele>
        <time>2017-05-25T17:15:30Z</time>
      </trkpt>
      <trkpt lat="48.47001" lon="-3.82245">
        <ele>142</ele>
        <time>2017-05-25T17:16:00Z</time>
      </trkpt>
      <trkpt lat="48.47002" lon="-3.82248">
        <ele>142</ele>
        <time>2017-05-25T17:16:20Z</time>
      </trkpt>
      <trkpt lat="48.47002" lon="-3.82248">
        <ele>142</ele>
        <time>2017-05-25T17:16:25Z</time>
      </trkpt>
      <trkpt lat="48.47001" lon="-3.82248">
        <ele>142</ele>
        <time>2017-05-25T17:16:30Z</time>
      </trkpt>
      <trkpt lat="48.47001" lon="-3.82246">
        <ele>142</ele>
        <time>2017-05-25T17:16:45Z</time>
      </trkpt>
      <trkpt lat="48.47002" lon="-3.82246">
        <ele>142</ele>
        <time>2017-05-25T17:17:05Z</time>
      </trkpt>
      <trkpt lat="48.47003" lon="-3.82246">
        <ele>142</ele>
        <time>2017-05-25T17:17:20Z</time>
      </trkpt>
      <trkpt lat="48.47003" lon="-3.82245">
        <ele>142</ele>
        <time>2017-05-25T17:17:45Z</time>
      </trkpt>
      <trkpt lat="48.47006" lon="-3.82243">
        <ele>142</ele>
        <time>2017-05-25T17:18:30Z</time>
      </trkpt>
      <trkpt lat="48.47006" lon="-3.82245">
        <ele>142</ele>
        <time>2017-05-25T17:18:45Z</time>
      </trkpt>
      <trkpt lat="48.47004" lon="-3.82246">
        <ele>142</ele>
        <time>2017-05-25T17:19:10Z</time>
      </trkpt>
      <trkpt lat="48.47003" lon="-3.82245">
        <ele>142</ele>
        <time>2017-05-25T17:19:35Z</time>
      </trkpt>
      <trkpt lat="48.47002" lon="-3.82247">
        <ele>142</ele>
        <time>2017-05-25T17:20:05Z</time>
      </trkpt>
      <trkpt lat="48.46999" lon="-3.82248">
        <ele>142</ele>
        <time>2017-05-25T17:20:15Z</time>
      </trkpt>
      <trkpt lat="48.46999" lon="-3.82247">
        <ele>142</ele>
        <time>2017-05-25T17:20:35Z</time>
      </trkpt>
      <trkpt lat="48.46999" lon="-3.82248">
        <ele>142</ele>
        <time>2017-05-25T17:20:45Z</time>
      </trkpt>
      <trkpt lat="48.47" lon="-3.82247">
        <ele>142</ele>
        <time>2017-05-25T17:21:20Z</time>
      </trkpt>
      <trkpt lat="48.46997" lon="-3.82246">
        <ele>142</ele>
        <time>2017-05-25T17:21:45Z</time>
      </trkpt>
      <trkpt lat="48.46997" lon="-3.82246">
        <ele>142</ele>
        <time>2017-05-25T17:21:50Z</time>
      </trkpt>
      <trkpt lat="48.47" lon="-3.82245">
        <ele>142</ele>
        <time>2017-05-25T17:22:05Z</time>
      </trkpt>
      <trkpt lat="48.47" lon="-3.82247">
        <ele>142</ele>
        <time>2017-05-25T17:22:30Z</time>
      </trkpt>
      <trkpt lat="48.47002" lon="-3.82251">
        <ele>142</ele>
        <time>2017-05-25T17:22:55Z</time>
      </trkpt>
      <trkpt lat="48.47003" lon="-3.8225">
        <ele>142</ele>
        <time>2017-05-25T17:23:10Z</time>
      </trkpt>
      <trkpt lat="48.47003" lon="-3.82252">
        <ele>142</ele>
        <time>2017-05-25T17:24:00Z</time>
      </trkpt>
      <trkpt lat="48.47003" lon="-3.82253">
        <ele>142</ele>
        <time>2017-05-25T17:24:10Z</time>
      </trkpt>
      <trkpt lat="48.47001" lon="-3.82253">
        <ele>142</ele>
        <time>2017-05-25T17:24:35Z</time>
      </trkpt>
      <trkpt lat="48.47004" lon="-3.82256">
        <ele>142</ele>
        <time>2017-05-25T17:24:45Z</time>
      </trkpt>
      <trkpt lat="48.47003" lon="-3.82258">
        <ele>142</ele>
        <time>2017-05-25T17:25:05Z</time>
      </trkpt>
      <trkpt lat="48.47002" lon="-3.82259">
        <ele>142</ele>
        <time>2017-05-25T17:25:15Z</time>
      </trkpt>
      <trkpt lat="48.47002" lon="-3.82257">
        <ele>142</ele>
        <time>2017-05-25T17:25:45Z</time>
      </trkpt>
      <trkpt lat="48.47004" lon="-3.82256">
        <ele>142</ele>
        <time>2017-05-25T17:25:55Z</time>
      </trkpt>
      <trkpt lat="48.47006" lon="-3.82257">
        <ele>143</ele>
        <time>2017-05-25T17:26:15Z</time>
      </trkpt>
      <trkpt lat="48.47005" lon="-3.82259">
        <ele>142</ele>
        <time>2017-05-25T17:26:50Z</time>
      </trkpt>
      <trkpt lat="48.47005" lon="-3.82257">
        <ele>142</ele>
        <time>2017-05-25T17:27:05Z</time>
      </trkpt>
      <trkpt lat="48.4701" lon="-3.82257">
        <ele>144</ele>
        <time>2017-05-25T17:27:30Z</time>
      </trkpt>
      <trkpt lat="48.47031" lon="-3.82263">
        <ele>149</ele>
        <time>2017-05-25T17:28:00Z</time>
      </trkpt>
      <trkpt lat="48.47037" lon="-3.82262">
        <ele>150</ele>
        <time>2017-05-25T17:28:05Z</time>
      </trkpt>
      <trkpt lat="48.47059" lon="-3.82271">
        <ele>149</ele>
        <time>2017-05-25T17:28:30Z</time>
      </trkpt>
      <trkpt lat="48.47061" lon="-3.82273">
        <ele>149</ele>
        <time>2017-05-25T17:28:35Z</time>
      </trkpt>
      <trkpt lat="48.4707" lon="-3.82274">
        <ele>149</ele>
        <time>2017-05-25T17:28:45Z</time>
      </trkpt>
      <trkpt lat="48.47086" lon="-3.82273">
        <ele>148</ele>
        <time>2017-05-25T17:29:00Z</time>
      </trkpt>
      <trkpt lat="48.47097" lon="-3.82273">
        <ele>148</ele>
        <time>2017-05-25T17:29:10Z</time>
      </trkpt>
      <trkpt lat="48.47119" lon="-3.82267">
        <ele>148</ele>
        <time>2017-05-25T17:29:50Z</time>
      </trkpt>
      <trkpt lat="48.4713" lon="-3.82258">
        <ele>148</ele>
        <time>2017-05-25T17:30:05Z</time>
      </trkpt>
      <trkpt lat="48.47145" lon="-3.82255">
        <ele>145</ele>
        <time>2017-05-25T17:30:20Z</time>
      </trkpt>
      <trkpt lat="48.47162" lon="-3.82267">
        <ele>141</ele>
        <time>2017-05-25T17:30:40Z</time>
      </trkpt>
      <trkpt lat="48.47171" lon="-3.82278">
        <ele>141</ele>
        <time>2017-05-25T17:30:55Z</time>
      </trkpt>
      <trkpt lat="48.47172" lon="-3.82278">
        <ele>141</ele>
        <time>2017-05-25T17:31:00Z</time>
      </trkpt>
      <trkpt lat="48.47191" lon="-3.82286">
        <ele>138</ele>
        <time>2017-05-25T17:31:30Z</time>
      </trkpt>
      <trkpt lat="48.47197" lon="-3.82294">
        <ele>139</ele>
        <time>2017-05-25T17:31:40Z</time>
      </trkpt>
      <trkpt lat="48.4722" lon="-3.82331">
        <ele>140</ele>
        <time>2017-05-25T17:32:15Z</time>
      </trkpt>
      <trkpt lat="48.47225" lon="-3.82342">
        <ele>142</ele>
        <time>2017-05-25T17:32:25Z</time>
      </trkpt>
      <trkpt lat="48.47232" lon="-3.82373">
        <ele>140</ele>
        <time>2017-05-25T17:32:50Z</time>
      </trkpt>
      <trkpt lat="48.47239" lon="-3.82385">
        <ele>140</ele>
        <time>2017-05-25T17:33:00Z</time>
      </trkpt>
      <trkpt lat="48.47259" lon="-3.82425">
        <ele>139</ele>
        <time>2017-05-25T17:33:40Z</time>
      </trkpt>
      <trkpt lat="48.47266" lon="-3.82437">
        <ele>141</ele>
        <time>2017-05-25T17:33:50Z</time>
      </trkpt>
      <trkpt lat="48.47275" lon="-3.82447">
        <ele>142</ele>
        <time>2017-05-25T17:34:05Z</time>
      </trkpt>
      <trkpt lat="48.47283" lon="-3.82452">
        <ele>143</ele>
        <time>2017-05-25T17:34:25Z</time>
      </trkpt>
      <trkpt lat="48.4729" lon="-3.82461">
        <ele>143</ele>
        <time>2017-05-25T17:34:35Z</time>
      </trkpt>
      <trkpt lat="48.47301" lon="-3.8246">
        <ele>142</ele>
        <time>2017-05-25T17:34:50Z</time>
      </trkpt>
      <trkpt lat="48.47328" lon="-3.82469">
        <ele>141</ele>
        <time>2017-05-25T17:35:15Z</time>
      </trkpt>
      <trkpt lat="48.47339" lon="-3.82468">
        <ele>141</ele>
        <time>2017-05-25T17:35:25Z</time>
      </trkpt>
      <trkpt lat="48.47341" lon="-3.82465">
        <ele>142</ele>
        <time>2017-05-25T17:35:30Z</time>
      </trkpt>
      <trkpt lat="48.47348" lon="-3.82459">
        <ele>144</ele>
        <time>2017-05-25T17:35:40Z</time>
      </trkpt>
      <trkpt lat="48.47368" lon="-3.82451">
        <ele>145</ele>
        <time>2017-05-25T17:36:05Z</time>
      </trkpt>
      <trkpt lat="48.47388" lon="-3.82449">
        <ele>142</ele>
        <time>2017-05-25T17:36:20Z</time>
      </trkpt>
      <trkpt lat="48.47403" lon="-3.82442">
        <ele>139</ele>
        <time>2017-05-25T17:36:45Z</time>
      </trkpt>
      <trkpt lat="48.47404" lon="-3.82437">
        <ele>142</ele>
        <time>2017-05-25T17:37:15Z</time>
      </trkpt>
      <trkpt lat="48.47428" lon="-3.82432">
        <ele>141</ele>
        <time>2017-05-25T17:37:40Z</time>
      </trkpt>
      <trkpt lat="48.47431" lon="-3.82434">
        <ele>141</ele>
        <time>2017-05-25T17:37:45Z</time>
      </trkpt>
      <trkpt lat="48.47451" lon="-3.82436">
        <ele>139</ele>
        <time>2017-05-25T17:38:15Z</time>
      </trkpt>
      <trkpt lat="48.47462" lon="-3.82445">
        <ele>138</ele>
        <time>2017-05-25T17:38:25Z</time>
      </trkpt>
      <trkpt lat="48.47472" lon="-3.82451">
        <ele>138</ele>
        <time>2017-05-25T17:38:40Z</time>
      </trkpt>
      <trkpt lat="48.47513" lon="-3.82465">
        <ele>130</ele>
        <time>2017-05-25T17:39:35Z</time>
      </trkpt>
      <trkpt lat="48.47518" lon="-3.82462">
        <ele>131</ele>
        <time>2017-05-25T17:39:45Z</time>
      </trkpt>
      <trkpt lat="48.47532" lon="-3.82478">
        <ele>133</ele>
        <time>2017-05-25T17:40:05Z</time>
      </trkpt>
      <trkpt lat="48.47546" lon="-3.825">
        <ele>135</ele>
        <time>2017-05-25T17:40:25Z</time>
      </trkpt>
      <trkpt lat="48.47558" lon="-3.82508">
        <ele>136</ele>
        <time>2017-05-25T17:40:40Z</time>
      </trkpt>
      <trkpt lat="48.47579" lon="-3.82531">
        <ele>135</ele>
        <time>2017-05-25T17:41:05Z</time>
      </trkpt>
      <trkpt lat="48.47597" lon="-3.82534">
        <ele>135</ele>
        <time>2017-05-25T17:41:25Z</time>
      </trkpt>
      <trkpt lat="48.47614" lon="-3.8254">
        <ele>135</ele>
        <time>2017-05-25T17:41:40Z</time>
      </trkpt>
      <trkpt lat="48.47631" lon="-3.82545">
        <ele>135</ele>
        <time>2017-05-25T17:41:55Z</time>
      </trkpt>
      <trkpt lat="48.47673" lon="-3.82566">
        <ele>135</ele>
        <time>2017-05-25T17:42:30Z</time>
      </trkpt>
      <trkpt lat="48.47678" lon="-3.82567">
        <ele>135</ele>
        <time>2017-05-25T17:42:35Z</time>
      </trkpt>
      <trkpt lat="48.47726" lon="-3.82586">
        <ele>132</ele>
        <time>2017-05-25T17:43:15Z</time>
      </trkpt>
      <trkpt lat="48.47748" lon="-3.8259">
        <ele>130</ele>
        <time>2017-05-25T17:43:35Z</time>
      </trkpt>
      <trkpt lat="48.47766" lon="-3.82591">
        <ele>130</ele>
        <time>2017-05-25T17:44:00Z</time>
      </trkpt>
      <trkpt lat="48.47784" lon="-3.82595">
        <ele>128</ele>
        <time>2017-05-25T17:44:20Z</time>
      </trkpt>
      <trkpt lat="48.47789" lon="-3.82598">
        <ele>127</ele>
        <time>2017-05-25T17:44:25Z</time>
      </trkpt>
      <trkpt lat="48.47802" lon="-3.82599">
        <ele>128</ele>
        <time>2017-05-25T17:44:35Z</time>
      </trkpt>
      <trkpt lat="48.47812" lon="-3.82598">
        <ele>129</ele>
        <time>2017-05-25T17:44:45Z</time>
      </trkpt>
      <trkpt lat="48.47829" lon="-3.82592">
        <ele>128</ele>
        <time>2017-05-25T17:45:05Z</time>
      </trkpt>
      <trkpt lat="48.47841" lon="-3.82579">
        <ele>129</ele>
        <time>2017-05-25T17:45:25Z</time>
      </trkpt>
      <trkpt lat="48.47851" lon="-3.82574">
        <ele>128</ele>
        <time>2017-05-25T17:45:30Z</time>
      </trkpt>
      <trkpt lat="48.47898" lon="-3.82549">
        <ele>127</ele>
        <time>2017-05-25T17:46:15Z</time>
      </trkpt>
      <trkpt lat="48.47938" lon="-3.82538">
        <ele>127</ele>
        <time>2017-05-25T17:46:45Z</time>
      </trkpt>
      <trkpt lat="48.47972" lon="-3.82537">
        <ele>128</ele>
        <time>2017-05-25T17:47:15Z</time>
      </trkpt>
      <trkpt lat="48.47987" lon="-3.82534">
        <ele>130</ele>
        <time>2017-05-25T17:47:30Z</time>
      </trkpt>
      <trkpt lat="48.48011" lon="-3.82529">
        <ele>133</ele>
        <time>2017-05-25T17:47:50Z</time>
      </trkpt>
      <trkpt lat="48.48016" lon="-3.82526">
        <ele>134</ele>
        <time>2017-05-25T17:47:55Z</time>
      </trkpt>
      <trkpt lat="48.48039" lon="-3.82531">
        <ele>134</ele>
        <time>2017-05-25T17:48:15Z</time>
      </trkpt>
      <trkpt lat="48.48053" lon="-3.82531">
        <ele>134</ele>
        <time>2017-05-25T17:48:25Z</time>
      </trkpt>
      <trkpt lat="48.48071" lon="-3.82545">
        <ele>128</ele>
        <time>2017-05-25T17:48:40Z</time>
      </trkpt>
      <trkpt lat="48.48115" lon="-3.82554">
        <ele>126</ele>
        <time>2017-05-25T17:49:15Z</time>
      </trkpt>
      <trkpt lat="48.48137" lon="-3.82534">
        <ele>129</ele>
        <time>2017-05-25T17:49:40Z</time>
      </trkpt>
      <trkpt lat="48.48141" lon="-3.82531">
        <ele>129</ele>
        <time>2017-05-25T17:49:45Z</time>
      </trkpt>
      <trkpt lat="48.48145" lon="-3.82523">
        <ele>130</ele>
        <time>2017-05-25T17:50:00Z</time>
      </trkpt>
      <trkpt lat="48.48164" lon="-3.82499">
        <ele>140</ele>
        <time>2017-05-25T17:50:30Z</time>
      </trkpt>
      <trkpt lat="48.4817" lon="-3.82483">
        <ele>144</ele>
        <time>2017-05-25T17:50:55Z</time>
      </trkpt>
      <trkpt lat="48.48183" lon="-3.82461">
        <ele>146</ele>
        <time>2017-05-25T17:51:20Z</time>
      </trkpt>
      <trkpt lat="48.48205" lon="-3.82445">
        <ele>146</ele>
        <time>2017-05-25T17:51:40Z</time>
      </trkpt>
      <trkpt lat="48.4821" lon="-3.82435">
        <ele>149</ele>
        <time>2017-05-25T17:51:50Z</time>
      </trkpt>
      <trkpt lat="48.48216" lon="-3.82433">
        <ele>148</ele>
        <time>2017-05-25T17:51:55Z</time>
      </trkpt>
      <trkpt lat="48.48232" lon="-3.82431">
        <ele>148</ele>
        <time>2017-05-25T17:52:10Z</time>
      </trkpt>
      <trkpt lat="48.48251" lon="-3.82432">
        <ele>146</ele>
        <time>2017-05-25T17:52:25Z</time>
      </trkpt>
      <trkpt lat="48.4829" lon="-3.8243">
        <ele>143</ele>
        <time>2017-05-25T17:53:05Z</time>
      </trkpt>
      <trkpt lat="48.483" lon="-3.82433">
        <ele>140</ele>
        <time>2017-05-25T17:53:15Z</time>
      </trkpt>
      <trkpt lat="48.4832" lon="-3.82431">
        <ele>142</ele>
        <time>2017-05-25T17:53:35Z</time>
      </trkpt>
      <trkpt lat="48.48338" lon="-3.82436">
        <ele>143</ele>
        <time>2017-05-25T17:53:55Z</time>
      </trkpt>
      <trkpt lat="48.48357" lon="-3.82427">
        <ele>146</ele>
        <time>2017-05-25T17:54:10Z</time>
      </trkpt>
      <trkpt lat="48.48374" lon="-3.82424">
        <ele>146</ele>
        <time>2017-05-25T17:54:25Z</time>
      </trkpt>
      <trkpt lat="48.484" lon="-3.82404">
        <ele>149</ele>
        <time>2017-05-25T17:54:55Z</time>
      </trkpt>
      <trkpt lat="48.48425" lon="-3.82405">
        <ele>159</ele>
        <time>2017-05-25T17:55:25Z</time>
      </trkpt>
      <trkpt lat="48.48432" lon="-3.82402">
        <ele>161</ele>
        <time>2017-05-25T17:55:30Z</time>
      </trkpt>
      <trkpt lat="48.48462" lon="-3.82413">
        <ele>161</ele>
        <time>2017-05-25T17:56:00Z</time>
      </trkpt>
      <trkpt lat="48.48467" lon="-3.82412">
        <ele>161</ele>
        <time>2017-05-25T17:56:05Z</time>
      </trkpt>
      <trkpt lat="48.48482" lon="-3.82395">
        <ele>160</ele>
        <time>2017-05-25T17:56:30Z</time>
      </trkpt>
      <trkpt lat="48.485" lon="-3.82386">
        <ele>160</ele>
        <time>2017-05-25T17:56:50Z</time>
      </trkpt>
      <trkpt lat="48.48509" lon="-3.82378">
        <ele>161</ele>
        <time>2017-05-25T17:57:05Z</time>
      </trkpt>
      <trkpt lat="48.48511" lon="-3.8237">
        <ele>163</ele>
        <time>2017-05-25T17:57:10Z</time>
      </trkpt>
      <trkpt lat="48.48503" lon="-3.82345">
        <ele>165</ele>
        <time>2017-05-25T17:57:30Z</time>
      </trkpt>
      <trkpt lat="48.48503" lon="-3.82339">
        <ele>165</ele>
        <time>2017-05-25T17:57:35Z</time>
      </trkpt>
      <trkpt lat="48.48508" lon="-3.82306">
        <ele>169</ele>
        <time>2017-05-25T17:58:00Z</time>
      </trkpt>
      <trkpt lat="48.48504" lon="-3.82278">
        <ele>171</ele>
        <time>2017-05-25T17:58:20Z</time>
      </trkpt>
      <trkpt lat="48.48507" lon="-3.82272">
        <ele>170</ele>
        <time>2017-05-25T17:58:25Z</time>
      </trkpt>
      <trkpt lat="48.48499" lon="-3.82209">
        <ele>171</ele>
        <time>2017-05-25T17:59:00Z</time>
      </trkpt>
      <trkpt lat="48.48497" lon="-3.82201">
        <ele>171</ele>
        <time>2017-05-25T17:59:05Z</time>
      </trkpt>
      <trkpt lat="48.48481" lon="-3.82178">
        <ele>173</ele>
        <time>2017-05-25T17:59:25Z</time>
      </trkpt>
      <trkpt lat="48.48468" lon="-3.8215">
        <ele>172</ele>
        <time>2017-05-25T17:59:50Z</time>
      </trkpt>
      <trkpt lat="48.48474" lon="-3.82127">
        <ele>174</ele>
        <time>2017-05-25T18:00:05Z</time>
      </trkpt>
      <trkpt lat="48.48477" lon="-3.82106">
        <ele>177</ele>
        <time>2017-05-25T18:00:20Z</time>
      </trkpt>
      <trkpt lat="48.48479" lon="-3.82073">
        <ele>179</ele>
        <time>2017-05-25T18:00:45Z</time>
      </trkpt>
      <trkpt lat="48.4847" lon="-3.82032">
        <ele>184</ele>
        <time>2017-05-25T18:01:15Z</time>
      </trkpt>
      <trkpt lat="48.48472" lon="-3.82004">
        <ele>188</ele>
        <time>2017-05-25T18:01:35Z</time>
      </trkpt>
      <trkpt lat="48.48464" lon="-3.81976">
        <ele>192</ele>
        <time>2017-05-25T18:01:55Z</time>
      </trkpt>
      <trkpt lat="48.48451" lon="-3.8195">
        <ele>194</ele>
        <time>2017-05-25T18:02:20Z</time>
      </trkpt>
      <trkpt lat="48.48451" lon="-3.81933">
        <ele>195</ele>
        <time>2017-05-25T18:02:30Z</time>
      </trkpt>
      <trkpt lat="48.48448" lon="-3.81924">
        <ele>195</ele>
        <time>2017-05-25T18:02:35Z</time>
      </trkpt>
      <trkpt lat="48.4844" lon="-3.81836">
        <ele>195</ele>
        <time>2017-05-25T18:03:25Z</time>
      </trkpt>
      <trkpt lat="48.48452" lon="-3.81812">
        <ele>194</ele>
        <time>2017-05-25T18:03:45Z</time>
      </trkpt>
      <trkpt lat="48.48454" lon="-3.81805">
        <ele>194</ele>
        <time>2017-05-25T18:03:50Z</time>
      </trkpt>
      <trkpt lat="48.48474" lon="-3.81783">
        <ele>195</ele>
        <time>2017-05-25T18:04:10Z</time>
      </trkpt>
      <trkpt lat="48.48483" lon="-3.81765">
        <ele>195</ele>
        <time>2017-05-25T18:04:30Z</time>
      </trkpt>
      <trkpt lat="48.48494" lon="-3.81751">
        <ele>196</ele>
        <time>2017-05-25T18:04:45Z</time>
      </trkpt>
      <trkpt lat="48.4852" lon="-3.81731">
        <ele>198</ele>
        <time>2017-05-25T18:05:20Z</time>
      </trkpt>
      <trkpt lat="48.48527" lon="-3.81727">
        <ele>198</ele>
        <time>2017-05-25T18:05:25Z</time>
      </trkpt>
      <trkpt lat="48.48551" lon="-3.81724">
        <ele>199</ele>
        <time>2017-05-25T18:05:50Z</time>
      </trkpt>
      <trkpt lat="48.48555" lon="-3.8172">
        <ele>199</ele>
        <time>2017-05-25T18:05:55Z</time>
      </trkpt>
      <trkpt lat="48.48565" lon="-3.81702">
        <ele>198</ele>
        <time>2017-05-25T18:06:10Z</time>
      </trkpt>
      <trkpt lat="48.4858" lon="-3.81653">
        <ele>197</ele>
        <time>2017-05-25T18:06:45Z</time>
      </trkpt>
      <trkpt lat="48.48582" lon="-3.81633">
        <ele>197</ele>
        <time>2017-05-25T18:06:55Z</time>
      </trkpt>
      <trkpt lat="48.48587" lon="-3.81623">
        <ele>198</ele>
        <time>2017-05-25T18:07:00Z</time>
      </trkpt>
      <trkpt lat="48.48596" lon="-3.81573">
        <ele>197</ele>
        <time>2017-05-25T18:07:25Z</time>
      </trkpt>
      <trkpt lat="48.48607" lon="-3.8153">
        <ele>198</ele>
        <time>2017-05-25T18:07:50Z</time>
      </trkpt>
      <trkpt lat="48.48607" lon="-3.81504">
        <ele>199</ele>
        <time>2017-05-25T18:08:05Z</time>
      </trkpt>
      <trkpt lat="48.48622" lon="-3.81484">
        <ele>198</ele>
        <time>2017-05-25T18:08:25Z</time>
      </trkpt>
      <trkpt lat="48.48628" lon="-3.81456">
        <ele>198</ele>
        <time>2017-05-25T18:08:40Z</time>
      </trkpt>
      <trkpt lat="48.48629" lon="-3.81447">
        <ele>198</ele>
        <time>2017-05-25T18:08:45Z</time>
      </trkpt>
      <trkpt lat="48.48629" lon="-3.81422">
        <ele>199</ele>
        <time>2017-05-25T18:09:05Z</time>
      </trkpt>
      <trkpt lat="48.48627" lon="-3.81422">
        <ele>198</ele>
        <time>2017-05-25T18:09:20Z</time>
      </trkpt>
      <trkpt lat="48.48629" lon="-3.8142">
        <ele>199</ele>
        <time>2017-05-25T18:09:45Z</time>
      </trkpt>
      <trkpt lat="48.48631" lon="-3.8142">
        <ele>199</ele>
        <time>2017-05-25T18:10:10Z</time>
      </trkpt>
      <trkpt lat="48.4863" lon="-3.81419">
        <ele>199</ele>
        <time>2017-05-25T18:11:15Z</time>
      </trkpt>
      <trkpt lat="48.4863" lon="-3.81419">
        <ele>199</ele>
        <time>2017-05-25T18:11:20Z</time>
      </trkpt>
      <trkpt lat="48.48633" lon="-3.8141">
        <ele>200</ele>
        <time>2017-05-25T18:11:35Z</time>
      </trkpt>
      <trkpt lat="48.48633" lon="-3.81405">
        <ele>200</ele>
        <time>2017-05-25T18:11:40Z</time>
      </trkpt>
      <trkpt lat="48.48638" lon="-3.81376">
        <ele>201</ele>
        <time>2017-05-25T18:12:00Z</time>
      </trkpt>
      <trkpt lat="48.48645" lon="-3.81312">
        <ele>202</ele>
        <time>2017-05-25T18:12:40Z</time>
      </trkpt>
      <trkpt lat="48.48644" lon="-3.81296">
        <ele>202</ele>
        <time>2017-05-25T18:12:50Z</time>
      </trkpt>
      <trkpt lat="48.48641" lon="-3.8128">
        <ele>202</ele>
        <time>2017-05-25T18:13:00Z</time>
      </trkpt>
      <trkpt lat="48.48632" lon="-3.81218">
        <ele>202</ele>
        <time>2017-05-25T18:13:35Z</time>
      </trkpt>
      <trkpt lat="48.48625" lon="-3.81191">
        <ele>201</ele>
        <time>2017-05-25T18:13:50Z</time>
      </trkpt>
      <trkpt lat="48.48621" lon="-3.81162">
        <ele>199</ele>
        <time>2017-05-25T18:14:05Z</time>
      </trkpt>
      <trkpt lat="48.48606" lon="-3.81123">
        <ele>199</ele>
        <time>2017-05-25T18:14:30Z</time>
      </trkpt>
      <trkpt lat="48.48592" lon="-3.81063">
        <ele>199</ele>
        <time>2017-05-25T18:15:05Z</time>
      </trkpt>
      <trkpt lat="48.48581" lon="-3.81034">
        <ele>200</ele>
        <time>2017-05-25T18:15:25Z</time>
      </trkpt>
      <trkpt lat="48.48566" lon="-3.81009">
        <ele>203</ele>
        <time>2017-05-25T18:15:50Z</time>
      </trkpt>
      <trkpt lat="48.4856" lon="-3.80989">
        <ele>203</ele>
        <time>2017-05-25T18:16:00Z</time>
      </trkpt>
      <trkpt lat="48.4856" lon="-3.80948">
        <ele>203</ele>
        <time>2017-05-25T18:16:25Z</time>
      </trkpt>
      <trkpt lat="48.48558" lon="-3.80919">
        <ele>203</ele>
        <time>2017-05-25T18:16:40Z</time>
      </trkpt>
      <trkpt lat="48.4856" lon="-3.80911">
        <ele>203</ele>
        <time>2017-05-25T18:16:45Z</time>
      </trkpt>
      <trkpt lat="48.48562" lon="-3.80874">
        <ele>199</ele>
        <time>2017-05-25T18:17:05Z</time>
      </trkpt>
      <trkpt lat="48.48555" lon="-3.80844">
        <ele>198</ele>
        <time>2017-05-25T18:17:20Z</time>
      </trkpt>
      <trkpt lat="48.48528" lon="-3.80787">
        <ele>197</ele>
        <time>2017-05-25T18:17:55Z</time>
      </trkpt>
      <trkpt lat="48.4852" lon="-3.80731">
        <ele>191</ele>
        <time>2017-05-25T18:18:25Z</time>
      </trkpt>
      <trkpt lat="48.48521" lon="-3.80716">
        <ele>190</ele>
        <time>2017-05-25T18:18:35Z</time>
      </trkpt>
      <trkpt lat="48.48501" lon="-3.80666">
        <ele>185</ele>
        <time>2017-05-25T18:19:10Z</time>
      </trkpt>
      <trkpt lat="48.48493" lon="-3.80644">
        <ele>184</ele>
        <time>2017-05-25T18:19:25Z</time>
      </trkpt>
      <trkpt lat="48.48489" lon="-3.80637">
        <ele>184</ele>
        <time>2017-05-25T18:19:30Z</time>
      </trkpt>
      <trkpt lat="48.48478" lon="-3.80614">
        <ele>183</ele>
        <time>2017-05-25T18:19:50Z</time>
      </trkpt>
      <trkpt lat="48.48457" lon="-3.80585">
        <ele>180</ele>
        <time>2017-05-25T18:20:10Z</time>
      </trkpt>
      <trkpt lat="48.4843" lon="-3.80568">
        <ele>181</ele>
        <time>2017-05-25T18:20:35Z</time>
      </trkpt>
      <trkpt lat="48.48422" lon="-3.80551">
        <ele>181</ele>
        <time>2017-05-25T18:20:50Z</time>
      </trkpt>
      <trkpt lat="48.48427" lon="-3.80534">
        <ele>181</ele>
        <time>2017-05-25T18:21:00Z</time>
      </trkpt>
      <trkpt lat="48.48425" lon="-3.80507">
        <ele>179</ele>
        <time>2017-05-25T18:21:15Z</time>
      </trkpt>
      <trkpt lat="48.48436" lon="-3.80454">
        <ele>182</ele>
        <time>2017-05-25T18:21:55Z</time>
      </trkpt>
      <trkpt lat="48.48442" lon="-3.80435">
        <ele>183</ele>
        <time>2017-05-25T18:22:05Z</time>
      </trkpt>
      <trkpt lat="48.48443" lon="-3.80415">
        <ele>184</ele>
        <time>2017-05-25T18:22:15Z</time>
      </trkpt>
      <trkpt lat="48.48441" lon="-3.80376">
        <ele>185</ele>
        <time>2017-05-25T18:22:35Z</time>
      </trkpt>
      <trkpt lat="48.48429" lon="-3.80343">
        <ele>187</ele>
        <time>2017-05-25T18:22:55Z</time>
      </trkpt>
      <trkpt lat="48.48425" lon="-3.80342">
        <ele>187</ele>
        <time>2017-05-25T18:23:05Z</time>
      </trkpt>
      <trkpt lat="48.48423" lon="-3.80345">
        <ele>187</ele>
        <time>2017-05-25T18:23:10Z</time>
      </trkpt>
      <trkpt lat="48.48415" lon="-3.80367">
        <ele>185</ele>
        <time>2017-05-25T18:23:25Z</time>
      </trkpt>
      <trkpt lat="48.4838" lon="-3.80409">
        <ele>182</ele>
        <time>2017-05-25T18:24:00Z</time>
      </trkpt>
      <trkpt lat="48.48365" lon="-3.80439">
        <ele>181</ele>
        <time>2017-05-25T18:24:20Z</time>
      </trkpt>
      <trkpt lat="48.48358" lon="-3.80457">
        <ele>180</ele>
        <time>2017-05-25T18:24:30Z</time>
      </trkpt>
      <trkpt lat="48.48336" lon="-3.80506">
        <ele>177</ele>
        <time>2017-05-25T18:25:00Z</time>
      </trkpt>
      <trkpt lat="48.48319" lon="-3.80556">
        <ele>179</ele>
        <time>2017-05-25T18:25:30Z</time>
      </trkpt>
      <trkpt lat="48.4831" lon="-3.8058">
        <ele>180</ele>
        <time>2017-05-25T18:25:45Z</time>
      </trkpt>
      <trkpt lat="48.48305" lon="-3.80586">
        <ele>180</ele>
        <time>2017-05-25T18:25:50Z</time>
      </trkpt>
      <trkpt lat="48.48291" lon="-3.80615">
        <ele>179</ele>
        <time>2017-05-25T18:26:10Z</time>
      </trkpt>
      <trkpt lat="48.48279" lon="-3.80657">
        <ele>181</ele>
        <time>2017-05-25T18:26:35Z</time>
      </trkpt>
      <trkpt lat="48.48277" lon="-3.80683">
        <ele>183</ele>
        <time>2017-05-25T18:26:50Z</time>
      </trkpt>
      <trkpt lat="48.48269" lon="-3.8069">
        <ele>184</ele>
        <time>2017-05-25T18:27:00Z</time>
      </trkpt>
      <trkpt lat="48.48269" lon="-3.80686">
        <ele>184</ele>
        <time>2017-05-25T18:27:05Z</time>
      </trkpt>
      <trkpt lat="48.48258" lon="-3.80675">
        <ele>184</ele>
        <time>2017-05-25T18:27:20Z</time>
      </trkpt>
      <trkpt lat="48.48237" lon="-3.80642">
        <ele>182</ele>
        <time>2017-05-25T18:27:45Z</time>
      </trkpt>
      <trkpt lat="48.4823" lon="-3.80624">
        <ele>182</ele>
        <time>2017-05-25T18:28:00Z</time>
      </trkpt>
      <trkpt lat="48.48217" lon="-3.80615">
        <ele>183</ele>
        <time>2017-05-25T18:28:10Z</time>
      </trkpt>
      <trkpt lat="48.4819" lon="-3.806">
        <ele>187</ele>
        <time>2017-05-25T18:28:35Z</time>
      </trkpt>
      <trkpt lat="48.48166" lon="-3.80584">
        <ele>190</ele>
        <time>2017-05-25T18:28:55Z</time>
      </trkpt>
      <trkpt lat="48.48152" lon="-3.80565">
        <ele>190</ele>
        <time>2017-05-25T18:29:15Z</time>
      </trkpt>
      <trkpt lat="48.48146" lon="-3.80562">
        <ele>190</ele>
        <time>2017-05-25T18:29:20Z</time>
      </trkpt>
      <trkpt lat="48.48101" lon="-3.80514">
        <ele>193</ele>
        <time>2017-05-25T18:30:15Z</time>
      </trkpt>
      <trkpt lat="48.48091" lon="-3.80497">
        <ele>194</ele>
        <time>2017-05-25T18:30:30Z</time>
      </trkpt>
      <trkpt lat="48.48068" lon="-3.80475">
        <ele>195</ele>
        <time>2017-05-25T18:31:05Z</time>
      </trkpt>
      <trkpt lat="48.48057" lon="-3.80468">
        <ele>194</ele>
        <time>2017-05-25T18:31:20Z</time>
      </trkpt>
      <trkpt lat="48.48051" lon="-3.80459">
        <ele>193</ele>
        <time>2017-05-25T18:31:40Z</time>
      </trkpt>
      <trkpt lat="48.4804" lon="-3.80454">
        <ele>194</ele>
        <time>2017-05-25T18:31:55Z</time>
      </trkpt>
      <trkpt lat="48.48037" lon="-3.80448">
        <ele>193</ele>
        <time>2017-05-25T18:32:15Z</time>
      </trkpt>
      <trkpt lat="48.48039" lon="-3.80445">
        <ele>193</ele>
        <time>2017-05-25T18:32:30Z</time>
      </trkpt>
      <trkpt lat="48.48035" lon="-3.8043">
        <ele>191</ele>
        <time>2017-05-25T18:33:10Z</time>
      </trkpt>
      <trkpt lat="48.48037" lon="-3.80427">
        <ele>191</ele>
        <time>2017-05-25T18:33:20Z</time>
      </trkpt>
      <trkpt lat="48.48038" lon="-3.80414">
        <ele>190</ele>
        <time>2017-05-25T18:33:35Z</time>
      </trkpt>
      <trkpt lat="48.48055" lon="-3.80397">
        <ele>189</ele>
        <time>2017-05-25T18:34:05Z</time>
      </trkpt>
      <trkpt lat="48.48058" lon="-3.80386">
        <ele>188</ele>
        <time>2017-05-25T18:34:25Z</time>
      </trkpt>
      <trkpt lat="48.48066" lon="-3.80382">
        <ele>188</ele>
        <time>2017-05-25T18:34:40Z</time>
      </trkpt>
      <trkpt lat="48.48065" lon="-3.80378">
        <ele>188</ele>
        <time>2017-05-25T18:34:50Z</time>
      </trkpt>
      <trkpt lat="48.48069" lon="-3.80361">
        <ele>186</ele>
        <time>2017-05-25T18:35:25Z</time>
      </trkpt>
      <trkpt lat="48.48075" lon="-3.80356">
        <ele>186</ele>
        <time>2017-05-25T18:35:40Z</time>
      </trkpt>
      <trkpt lat="48.48077" lon="-3.80345">
        <ele>186</ele>
        <time>2017-05-25T18:36:00Z</time>
      </trkpt>
      <trkpt lat="48.48076" lon="-3.80334">
        <ele>187</ele>
        <time>2017-05-25T18:36:20Z</time>
      </trkpt>
      <trkpt lat="48.48067" lon="-3.80328">
        <ele>188</ele>
        <time>2017-05-25T18:36:35Z</time>
      </trkpt>
      <trkpt lat="48.48057" lon="-3.80323">
        <ele>188</ele>
        <time>2017-05-25T18:36:45Z</time>
      </trkpt>
      <trkpt lat="48.48054" lon="-3.80316">
        <ele>188</ele>
        <time>2017-05-25T18:36:55Z</time>
      </trkpt>
      <trkpt lat="48.4804" lon="-3.80308">
        <ele>186</ele>
        <time>2017-05-25T18:37:10Z</time>
      </trkpt>
      <trkpt lat="48.48002" lon="-3.80269">
        <ele>187</ele>
        <time>2017-05-25T18:38:05Z</time>
      </trkpt>
      <trkpt lat="48.4799" lon="-3.80263">
        <ele>188</ele>
        <time>2017-05-25T18:38:20Z</time>
      </trkpt>
      <trkpt lat="48.47981" lon="-3.80254">
        <ele>188</ele>
        <time>2017-05-25T18:38:30Z</time>
      </trkpt>
      <trkpt lat="48.47968" lon="-3.8025">
        <ele>189</ele>
        <time>2017-05-25T18:38:45Z</time>
      </trkpt>
      <trkpt lat="48.4795" lon="-3.80236">
        <ele>191</ele>
        <time>2017-05-25T18:39:05Z</time>
      </trkpt>
      <trkpt lat="48.47925" lon="-3.80235">
        <ele>192</ele>
        <time>2017-05-25T18:39:30Z</time>
      </trkpt>
      <trkpt lat="48.47901" lon="-3.80222">
        <ele>189</ele>
        <time>2017-05-25T18:39:55Z</time>
      </trkpt>
      <trkpt lat="48.4789" lon="-3.80204">
        <ele>192</ele>
        <time>2017-05-25T18:40:10Z</time>
      </trkpt>
      <trkpt lat="48.47874" lon="-3.80191">
        <ele>193</ele>
        <time>2017-05-25T18:40:30Z</time>
      </trkpt>
      <trkpt lat="48.47871" lon="-3.80177">
        <ele>195</ele>
        <time>2017-05-25T18:40:45Z</time>
      </trkpt>
      <trkpt lat="48.47852" lon="-3.80132">
        <ele>199</ele>
        <time>2017-05-25T18:41:15Z</time>
      </trkpt>
      <trkpt lat="48.47832" lon="-3.80097">
        <ele>200</ele>
        <time>2017-05-25T18:41:35Z</time>
      </trkpt>
      <trkpt lat="48.4783" lon="-3.80072">
        <ele>201</ele>
        <time>2017-05-25T18:41:55Z</time>
      </trkpt>
      <trkpt lat="48.47811" lon="-3.80039">
        <ele>203</ele>
        <time>2017-05-25T18:42:20Z</time>
      </trkpt>
      <trkpt lat="48.47806" lon="-3.80029">
        <ele>202</ele>
        <time>2017-05-25T18:42:30Z</time>
      </trkpt>
      <trkpt lat="48.47798" lon="-3.79977">
        <ele>206</ele>
        <time>2017-05-25T18:43:05Z</time>
      </trkpt>
      <trkpt lat="48.47794" lon="-3.79961">
        <ele>207</ele>
        <time>2017-05-25T18:43:15Z</time>
      </trkpt>
      <trkpt lat="48.47795" lon="-3.79953">
        <ele>207</ele>
        <time>2017-05-25T18:43:20Z</time>
      </trkpt>
      <trkpt lat="48.478" lon="-3.79927">
        <ele>208</ele>
        <time>2017-05-25T18:43:35Z</time>
      </trkpt>
      <trkpt lat="48.47806" lon="-3.79911">
        <ele>209</ele>
        <time>2017-05-25T18:43:45Z</time>
      </trkpt>
      <trkpt lat="48.47812" lon="-3.79897">
        <ele>209</ele>
        <time>2017-05-25T18:43:55Z</time>
      </trkpt>
      <trkpt lat="48.47827" lon="-3.79876">
        <ele>210</ele>
        <time>2017-05-25T18:44:15Z</time>
      </trkpt>
      <trkpt lat="48.47836" lon="-3.79847">
        <ele>210</ele>
        <time>2017-05-25T18:44:50Z</time>
      </trkpt>
      <trkpt lat="48.47842" lon="-3.79845">
        <ele>211</ele>
        <time>2017-05-25T18:45:25Z</time>
      </trkpt>
      <trkpt lat="48.47842" lon="-3.79841">
        <ele>211</ele>
        <time>2017-05-25T18:45:40Z</time>
      </trkpt>
      <trkpt lat="48.47841" lon="-3.7983">
        <ele>211</ele>
        <time>2017-05-25T18:45:55Z</time>
      </trkpt>
      <trkpt lat="48.47835" lon="-3.79817">
        <ele>211</ele>
        <time>2017-05-25T18:46:05Z</time>
      </trkpt>
      <trkpt lat="48.47819" lon="-3.79801">
        <ele>212</ele>
        <time>2017-05-25T18:46:25Z</time>
      </trkpt>
      <trkpt lat="48.47814" lon="-3.79798">
        <ele>212</ele>
        <time>2017-05-25T18:46:35Z</time>
      </trkpt>
      <trkpt lat="48.47813" lon="-3.79789">
        <ele>213</ele>
        <time>2017-05-25T18:47:10Z</time>
      </trkpt>
      <trkpt lat="48.47806" lon="-3.79775">
        <ele>214</ele>
        <time>2017-05-25T18:47:25Z</time>
      </trkpt>
      <trkpt lat="48.47805" lon="-3.79758">
        <ele>215</ele>
        <time>2017-05-25T18:47:35Z</time>
      </trkpt>
      <trkpt lat="48.47812" lon="-3.79741">
        <ele>216</ele>
        <time>2017-05-25T18:47:50Z</time>
      </trkpt>
      <trkpt lat="48.47828" lon="-3.79724">
        <ele>216</ele>
        <time>2017-05-25T18:48:10Z</time>
      </trkpt>
      <trkpt lat="48.47845" lon="-3.79704">
        <ele>217</ele>
        <time>2017-05-25T18:48:30Z</time>
      </trkpt>
      <trkpt lat="48.47861" lon="-3.7969">
        <ele>217</ele>
        <time>2017-05-25T18:48:45Z</time>
      </trkpt>
      <trkpt lat="48.47888" lon="-3.79674">
        <ele>218</ele>
        <time>2017-05-25T18:49:10Z</time>
      </trkpt>
      <trkpt lat="48.47907" lon="-3.79671">
        <ele>218</ele>
        <time>2017-05-25T18:49:25Z</time>
      </trkpt>
      <trkpt lat="48.47925" lon="-3.79656">
        <ele>219</ele>
        <time>2017-05-25T18:49:45Z</time>
      </trkpt>
      <trkpt lat="48.47936" lon="-3.7964">
        <ele>218</ele>
        <time>2017-05-25T18:50:05Z</time>
      </trkpt>
      <trkpt lat="48.47945" lon="-3.7961">
        <ele>219</ele>
        <time>2017-05-25T18:50:25Z</time>
      </trkpt>
      <trkpt lat="48.47954" lon="-3.79553">
        <ele>220</ele>
        <time>2017-05-25T18:51:00Z</time>
      </trkpt>
      <trkpt lat="48.47954" lon="-3.79548">
        <ele>220</ele>
        <time>2017-05-25T18:51:05Z</time>
      </trkpt>
      <trkpt lat="48.47945" lon="-3.79532">
        <ele>220</ele>
        <time>2017-05-25T18:51:24Z</time>
      </trkpt>
    </trkseg>
  </trk>
</gpx>